Filtrer par Nom Sexe Groupe d'age
3 Ballons GranFondo 2009
RG. DOS. TEMPS CAT RG. POINTS
2 248 SNEL MICHEL 06:28:43:000 D 1 330.00 PLOMBIERES LES BAINS, FRANCE
3 145 LAUBER EDOUARD 06:30:23:000 C 1 330.00 SEWEN, FRANCE
4 27 HORNETZ BERND 06:34:03:000 E 1 330.00 KARLSRUHE, ALLEMAGNE
5 158 LEBLACHER ERIC 06:36:05:000 D 2 328.90 ARMENTIERES EN BRIE, France
6 201 BURY BART 06:37:40:000 D 3 327.80 SINT-GILLIS, BELGIQUE
7 1354 TRONET STEVEN 06:38:21:000 C 2 328.90 MARCK, FRANCE
8 81 DIAZ STEVE 06:38:29:000 C 3 327.80 SCHWEIGHOUSE, FRANCE
9 159 DENTON STEFAN 06:41:40:000 D 4 326.70 OEGSTGEEST, Pays-Bas
10 195 HIDDEMA OEGE 06:42:12:000 E 2 328.90 GRONINGEN, Pays-Bas
11 219 NUYENS HANS 06:42:44:000 E 3 327.80 OUD TURNHOUT, BELGIQUE
12 3 GRONHEID WOUTER 06:44:12:000 C 4 326.70 MAASTRICHT, Pays-Bas
13 162 GRAAFMANS SJEF 06:46:07:000 E 4 326.70 DONGEN, Pays-bas
14 34 JOULIN ERIC 06:46:33:000 D 5 325.60 NANCY, FRANCE
15 1791 GULLY HUBERT 06:46:41:000 D 6 324.50 ROUFFACH, FRANCE
16 6 MAILFAIT SEBASTIEN 06:47:39:000 D 7 323.40 LINCHAMPS, FRANCE
17 177 CROISIER ARNAUD 06:48:14:000 C 5 325.60 ELLEMELLE, BELGIQUE
18 765 VAN DEN BUVERIE HANS 06:48:18:000 C 6 324.50 BREDENE, BELGIQUE
19 23 SPEYBROUCK FILIP 06:48:20:000 D 8 322.30 BRUGGE, BELGIQUE
20 268 PLANCKE GEERT 06:49:37:000 D 9 321.20 KNOKKE HEIST, BELGIQUE
21 44 RICHARD DAMIEN 06:49:52:000 D 10 320.10 EPINAL, France
22 466 VERWIMP LUC 06:50:24:000 E 5 325.60 GEEL, BELGIQUE
23 147 SCHEFFER FRANK 06:50:26:000 E 6 324.50 DEN DOLDER, Pays-bas
24 287 NUSSBAUMER HARRY 06:50:47:000 E 7 323.40 Seegräben, Suisse
25 212 DERKSEN MICHIEL 06:51:34:000 C 7 323.40 OLDENZAAL, Pays-Bas
26 1009 BOONSTRA JOHAN 06:51:35:000 E 8 322.30 GASTEREN, Pays-bas
27 999 TAMSIN KENNY 06:51:51:000 C 8 322.30 BRUGGE, BELGIQUE
28 271 CORSI THIERRY 06:53:40:000 D 11 319.00 OBERNAI, FRANCE
29 191 REMY BERTRAND 06:53:49:000 D 12 317.90 MONTREUIL, FRANCE
30 30 LINK FLORIAN 06:54:06:000 D 13 316.80 KIRCHZARTEN, ALLEMAGNE
31 221 COGGE CHRISTOPHE 06:54:16:000 D 14 315.70 BRUGGE, BELGIQUE
32 26 DEBERTIN DIRK 06:55:07:000 E 9 321.20 KARLSRUHE, Allemagne
33 110 GRAHAM MARK 06:55:14:000 D 15 314.60 CARLISLE, Royaume-Uni
34 8 LINGNAU FRANCK 06:55:16:000 D 16 313.50 DINSLAKEN, ALLEMAGNE
35 1732 BECKERS WALTER 06:55:18:000 D 17 312.40 TONGEREN, BELGIQUE
36 49 ALTHUSSER REMY 06:55:23:000 E 10 320.10 SELONCOURT, France
37 11 PETERS JIM 06:55:26:000 D 18 311.30 Loughborough, Royaume-Uni
38 283 CHIABUDINI MARCO 06:55:27:000 D 19 310.20 FREIBURG, Allemagne
39 189 HEIJLTJES HENRI 06:56:22:000 D 20 309.10 NIJMEGEN, Pays-Bas
40 452 CAENEN OLIVIER 06:56:30:000 E 11 319.00 OOSTENDE, BELGIQUE
41 245 VENDERBOSCH EIMERT 07:01:00:000 E 12 317.90 DIDAM, Pays-Bas
42 29 WALLAUER JAN 07:01:27:000 C 9 321.20 FREIBURG, ALLEMAGNE
43 1633 BOGAARTS GUY 07:01:28:000 C 10 320.10 MAASTRICHT, Pays-Bas
44 1522 VAN IMPE PETER 07:01:46:000 E 13 316.80 DENDERMONDE, BELGIQUE
45 777 DE BOER ROB 07:03:25:000 D 21 308.00 LEIDEN, Pays-Bas
46 275 MENAGER LOIC 07:04:31:000 D 22 306.90 BURES SUR YVETTE, FRANCE
47 924 VERVERS GEERT 07:04:48:000 E 14 315.70 DORDRECHT, Pays-bas
48 151 MERMANS LUC 07:05:24:000 E 15 314.60 ARENDONK, BELGIQUE
50 149 VAN TINTELEN IMMANUEL 07:05:31:000 E 16 313.50 BAARS, Pays-Bas
51 1733 APPERMANS MARIO 07:05:35:000 D 23 305.80 RIEMST, BELGIQUE
52 1288 CHATONNET FABIEN 07:05:51:000 D 24 304.70 DORMANS, FRANCE
53 9 WIESIOLEK THOMAS 07:05:59:000 C 11 319.00 HERNE, ALLEMAGNE
54 866 ENCKELS PETER 07:06:09:000 C 12 317.90 BRASSCHAAT, BELGIQUE
55 146 BEE SERGE 07:06:17:000 E 17 312.40 SELONCOURT, FRANCE
56 176 VOS HENDRIK 07:07:31:000 D 25 303.60 GENT, BELGIQUE
57 1521 VAN IMPE GUNTHER 07:08:35:000 E 18 311.30 NINOVE, BELGIQUE
58 43 GIORGALLA SERGE 07:09:06:000 F 1 330.00 paris, France
59 16 MARIJSSE GEERT 07:09:13:000 E 19 310.20 KORTRIJK, BELGIQUE
60 163 RYCKBOSCH JAN 07:09:24:000 E 20 309.10 MELSELE, Belgique
61 285 GRANDJEAN FRANCOIS 07:09:30:000 E 21 308.00 ST GEORGES, SUISSE
62 642 DUIJKERS MICHIEL 07:09:32:000 D 26 302.50 NYMEGEN, Pays-Bas
63 661 VAN BAKEL PAUL 07:09:40:000 D 27 301.40 UTRECHT, Pays-Bas
64 1381 GILLMANN JEREMIE 07:09:59:000 D 28 300.30 LUTZELHOUSE, FRANCE
65 617 MICHIELS PETER 07:10:11:000 E 22 306.90 ZELE, BELGIQUE
66 545 STERCKX JURGEN 07:10:12:000 D 29 299.20 HULDENBERG, BELGIQUE
67 276 LOUET CHRISTOPHE 07:10:17:000 D 30 298.10 CHEVIGNY ST SAUVEUR, FRANCE
68 2 MALLIEN ANDRE 07:10:23:000 E 23 305.80 CINEY EMPTINNE, BELGIQUE
69 755 MORIN NICOLAS 07:10:25:000 D 31 297.00 FONTENAY LE FLEURY, FRANCE
70 108 MONSIEURS JANIK 07:11:15:000 D 32 295.90 KESSEL, BELGIQUE
71 15 MULLER SEILLER CHRISTINE 07:11:34:000 AB 1 330.00 HAEGEN, France
72 522 NICODEME JOEL 07:11:44:000 E 24 304.70 HERCHIES, BELGIQUE
73 192 BOVY LUC 07:11:54:000 E 25 303.60 BORGLOON, BELGIQUE
74 1395 LEVELT WILLEM 07:12:22:000 E 26 302.50 RIJSWIJK, Pays-Bas
75 1678 VAN KAN BAS 07:12:28:000 D 33 294.80 MEERSEEN, Pays-Bas
76 140 HUBAU JOHAN 07:12:32:000 E 27 301.40 RONSE (RENAIX), BELGIQUE
77 278 RIETVELD LARS 07:12:37:000 E 28 300.30 OUDEWATER, Pays-Bas
78 84 BELUCHE MICKAEL 07:13:12:000 C 13 316.80 SAINT GERMAIN, France
79 196 DE RYCKE THOMAS 07:13:36:000 C 14 315.70 GENT, BELGIQUE
80 1448 SCHLOSSER THEOPHILE 07:13:39:000 E 29 299.20 TROISFONTAINES, FRANCE
81 91 VANDEN BRANDE EDITH 07:13:45:000 A 1 330.00 MARIAKERKE, BELGIQUE
82 168 ROLLMANN PETER 07:14:18:000 F 2 328.90 ADENAU, Allemagne
83 487 CANT STEVEN 07:14:25:000 C 15 314.60 WUUSTWEZEL, BELGIQUE
84 1579 OSSIEUR MICHAEL 07:14:45:000 D 34 293.70 GENT, BELGIQUE
85 300 GOHN YVES 07:14:46:000 D 35 292.60 PFALZWEYER, France
86 21 VAN HELVOORT ARNO 07:15:14:000 E 30 298.10 BEUNINGEN, Pays-Bas
87 37 PATUEL IAN 07:15:23:000 E 31 297.00 BEVILLE LE COMTE, France
88 155 RAEYMAEKERS LUC 07:15:41:000 E 32 295.90 RETIE, BELGIQUE
89 227 VOGELEISEN DOMINIQUE 07:15:49:000 E 33 294.80 OBERNAI, FRANCE
90 208 EHRMANN CLAUDE 07:16:15:000 F 3 327.80 STEINBOURG, FRANCE
91 7 SCHAFER FABIEN 07:16:28:000 D 36 291.50 MORSBACH, ALLEMAGNE
92 1253 MAS SEBASTIEN 07:16:30:000 C 16 313.50 OUDENAARDE, BELGIQUE
93 290 DEPUYDT DAVID 07:16:48:000 D 37 290.40 GENT, BELGIQUE
94 218 DE JONG PAUL 07:17:20:000 D 38 289.30 AMSTERDAM, Pays-Bas
95 1084 BOISARD OLIVIER 07:17:28:000 E 34 293.70 OBERNAI, FRANCE
96 14 CLEMENT LAURENT 07:17:35:000 E 35 292.60 ANNONAY, France
97 269 CUNEY YGOR 07:18:06:000 F 4 326.70 EVETTE SALBERT, FRANCE
98 1020 HUG RAINER 07:18:10:000 D 39 288.20 SOLOTHURN, SUISSE
99 213 NIJHUIS JEROEN 07:18:58:000 C 17 312.40 OLDENZAAL, Pays-Bas
100 83 SMITS SANDER 07:19:43:000 D 40 287.10 UTRECHT, Pays-bas
101 1592 BUYVOETS RICHARD 07:20:15:000 E 36 291.50 HAAREN, Pays-bas
102 249 WALLIANG FREDERIC 07:20:34:000 E 37 290.40 KINGERSHEIM, FRANCE
103 164 ROOSE YANNIK 07:20:38:000 E 38 289.30 BRUXELLES, Belgique
104 909 AANGENENDT CHARLES 07:20:41:000 E 39 288.20 NOOTDORP, Pays-Bas
105 178 SANCHEZ JEAN MICHEL 07:20:42:000 E 40 287.10 ST GRATIEN, France
106 560 CANON HUBERT 07:20:52:000 E 41 286.00 GESPUNSART, FRANCE
107 501 VANHORENBEEK GUY 07:21:09:000 F 5 325.60 SINT-TRUIDEN, Belgique
108 153 SCHENK GERARD 07:21:17:000 F 6 324.50 ESSEN, Belgique
109 233 BUYCK HENDRIK 07:21:22:000 D 41 286.00 SLEIDINGE, BELGIQUE
110 1681 ALBERTS MARTYN 07:21:28:000 D 42 284.90 BREDA, Pays-Bas
111 142 DEBROUWERE JEROEN 07:21:49:000 C 18 311.30 RONSE, BELGIQUE
112 816 GRUITROOIJ KOEN 07:22:18:000 C 19 310.20 RAVENSTEIN, Pays-Bas
113 205 VAN NIEUWENBORGH HERMAN 07:22:19:000 F 7 323.40 Aalst, Belgique
114 143 VAN DEN HEEDE BERNARD 07:22:39:000 D 43 283.80 RONSE, BELGIQUE
115 698 VAN LOO GERRIT 07:23:05:000 E 42 284.90 THARD, Pays-Bas
116 1663 VAN DAM PETER 07:23:06:000 E 43 283.80 EINDHOVEN, Pays-Bas
117 668 ANTONIS LUDWIG 07:23:28:000 C 20 309.10 TURNHOUT, BELGIQUE
118 223 HERTEGONNE JOHAN 07:23:57:000 F 8 322.30 ZOTTEGEM, BELGIQUE
119 374 SPAUWEN RUVAR 07:24:01:000 C 21 308.00 UTRECHT, Pays-Bas
120 1047 KAAL JOS 07:24:04:000 E 44 282.70 KLEVE, ALLEMAGNE
121 1216 COISY STEVE 07:24:08:000 D 44 282.70 BOLOGNE, FRANCE
122 157 MIES CHRIS 07:24:19:000 D 45 281.60 ESSEN, BELGIQUE
123 428 PRINSEN ANDRE 07:24:43:000 E 45 281.60 GEEL, BELGIQUE
124 1227 VERDONK WILLY 07:25:02:000 F 9 321.20 Ravels, Belgique
125 338 HARTENSTEIN BERNHARD 07:25:55:000 E 46 280.50 ANGELBACHTAL, ALLEMAGNE
126 1234 VIDBERG MANUEL 07:26:15:000 C 22 306.90 AMATHAY VESIGNEUX, FRANCE
127 1695 DREEDEN MARMIK 07:26:28:000 C 23 305.80 OVERPELT, BELGIQUE
128 242 MEUNIER ERIC 07:26:29:000 F 10 320.10 GHLIN, BELGIQUE
129 270 BOLLEN KOEN 07:26:39:000 D 46 280.50 BOUTERSEM, BELGIQUE
130 292 CONFORT SYLVAIN 07:26:59:000 D 47 279.40 BRINDAS, FRANCE
131 897 NOERBY PETER 07:27:23:000 D 48 278.30 VIBY J, Danemark
132 1688 KINTZIGER JOEL 07:28:26:000 E 47 279.40 SANEM, LUXEMBOURG
133 908 VAN SCHIE RICHARD 07:28:35:000 E 48 278.30 NOOTDORP, Pays-Bas
134 679 JACQUES EMMANUEL 07:28:43:000 E 49 277.20 LES CLAYES SOUS BOIS, France
135 252 VAN LIMBORGH KEES 07:28:45:000 F 11 319.00 LEKKERKERK, Pays-Bas
136 1377 VAN DER LINDE GIDO 07:28:46:000 D 49 277.20 UTRECHT, Pays-Bas
137 559 MEUL MATTHIAS 07:29:04:000 C 24 304.70 GENT, BELGIQUE
138 1032 GOHN CHRISTIAN 07:29:57:000 D 50 276.10 PFALZWEYER, FRANCE
139 166 JACQUIN GERARD 07:29:58:000 E 50 276.10 BAUME LES DAMES, France
140 1715 SEUNNINGA ARJAN 07:30:17:000 D 51 275.00 EDE, Pays-Bas
141 179 CARNEIRO BELMIRO 07:30:52:000 E 51 275.00 HOCHSTATT, FRANCE
142 350 KRUST REGIS 07:30:58:000 C 25 303.60 NIFFER, FRANCE
143 243 LINDELAUF CHARLES 07:31:10:000 E 52 273.90 BILZEN, BELGIQUE
144 25 STANESCO JOEL 07:31:18:000 F 12 317.90 AUCALEUC, France
145 803 VOGELEER STEPHAN 07:31:20:000 D 52 273.90 LEMBEEK, BELGIQUE
146 225 VERHEYEN JEAN 07:31:29:000 D 53 272.80 KEERBEREEN, BELGIQUE
147 1556 VERMUNT JEROEN 07:31:35:000 E 53 272.80 TILBURG, Pays-Bas
148 214 VAN DER HEIJDEN JEROEN 07:31:40:000 D 54 271.70 BLADEL, Pays-Bas
149 547 WELTE JEROEN 07:31:48:000 D 55 270.60 BORKEL EN SCHAFT, Pays-Bas
150 1761 AUBERT PASCAL 07:31:56:000 D 56 269.50 ST AME, France
151 217 VAN GENECHTEN KOEN 07:32:00:000 E 54 271.70 HOVE, BELGIQUE
152 741 STRAATSMA THIJS 07:32:04:000 C 26 302.50 EMMELOORD, Pays-Bas
153 187 SCHAILLEE LUC 07:32:21:000 E 55 270.60 GENTBRUGGE, BELGIQUE
154 286 LASTISNERES FREDERIC 07:32:26:000 D 57 268.40 SERON, FRANCE
155 148 STIENNON BERNARD 07:32:37:000 E 56 269.50 WAVRE, BELGIQUE
156 265 LE BAS MICKAEL 07:33:00:000 D 58 267.30 BOUTIGNY-PROUAIS, FRANCE
157 1012 DIORY DAMIEN 07:33:09:000 E 57 268.40 lingolsheim, France
158 1683 GERBAUX NICOLAS 07:33:14:000 C 27 301.40 METZ, FRANCE
159 1289 ELLNER FRANCK 07:33:19:000 E 58 267.30 SAINT MARTIN D ALLOIS, FRANCE
160 193 KARCHER BERNARD 07:33:22:000 E 59 266.20 MERXHEIM, FRANCE
161 349 VERSTEEG TIM 07:33:49:000 D 59 266.20 AMSTERDAM, Pays-Bas
162 1024 MARCOEN MARC 07:34:05:000 E 60 265.10 PELLENBERG, Belgique
163 1044 VAN HOEY SVEN 07:34:05:000 D 60 265.10 HULST, Pays-bas
164 670 MEEUS TOM 07:35:14:000 D 61 264.00 TURNHOUT, BELGIQUE
165 1582 KIRSCH CARLO 07:35:14:000 C 28 300.30 HOSINGEN, LUXEMBOURG
166 413 KNUDSEN ULRIK EGEBJERG 07:35:33:000 C 29 299.20 GRINDSTED, DANEMARK
167 1710 VAN LAETHEM PHILIPPE 07:35:59:000 D 62 262.90 NINOVE, BELGIQUE
168 1159 CASSOU CALARI PHILIPPE 07:36:10:000 E 61 264.00 FONSORBES, FRANCE
169 40 TETAZ OLIVIER 07:36:32:000 E 62 262.90 MOUXY, France
170 863 MROWCZYNSKI PIOTR 07:36:33:000 D 63 261.80 PRUSZKOW, POLOGNE
171 247 BACKELANDT FREDERIK 07:36:48:000 C 30 298.10 MARIAKERKE, BELGIQUE
172 660 COEVELD MARTIJN 07:36:55:000 D 64 260.70 AMSTERDAM, Pays-Bas
173 1654 ALEN MAARTEN 07:37:16:000 D 65 259.60 SCHERPENHEUVEL, BELGIQUE
174 1070 OUDET MARCEL 07:37:24:000 G1 1 330.00 CLANS, FRANCE
175 277 VAN HULLE MARIJN 07:37:27:000 D 66 258.50 MELLE, BELGIQUE
176 1466 LEMAITRE CHRISTOPHE 07:37:35:000 D 67 257.40 SAVIGNY EN VERON, FRANCE
177 1717 DE RAEDT ROOS 07:38:10:000 E 63 261.80 MARIAKERKE, BELGIQUE
178 17 NAEGELY GUY 07:38:15:000 F 13 316.80 THANN, France
179 1684 GOERGEN GERMAIN 07:38:23:000 F 14 315.70 SANEM, LUXEMBOURG
180 1150 LADANG MICHEL 07:38:25:000 F 15 314.60 HERVE, BELGIQUE
181 371 STEFFENS MARTIN 07:38:31:000 D 68 256.30 FREIBURG, ALLEMAGNE
182 154 VERMEERSCH PAUL 07:38:38:000 E 64 260.70 OUD TURNHOUT, BELGIQUE
183 297 BEILL CEDRIC 07:38:38:000 C 31 297.00 ASCHBACH, FRANCE
184 88 GARY ALAIN 07:38:46:000 G1 2 328.90 LYON, FRANCE
185 28 NAU DOMINIK 07:38:50:000 C 32 295.90 KOELN, ALLEMAGNE
186 433 VAN WIJK LEX 07:39:02:000 E 65 259.60 ZOETERMEER, Pays-Bas
187 1599 VAN KORUEN TON 07:39:07:000 E 66 258.50 DIESSEN, Pays-bas
188 284 BOULENGER BERTRAND 07:39:16:000 D 69 255.20 OBIES, FRANCE
189 1201 HOLLEBEKE EMMANUEL 07:40:28:000 C 33 294.80 PARIS, France
190 68 MONTOLIO FREDERIC 07:40:31:000 E 67 257.40 CHAPONOST, France
191 203 VAN DESSEL CHRISTOPH 07:40:32:000 D 70 254.10 HOVE, BELGIQUE
192 79 WILSCHUT MAARTEN-JAN 07:40:45:000 E 68 256.30 BARENDRECHT, Pays-Bas
193 348 VAN DE KAMP SJOERD 07:40:50:000 D 71 253.00 Oss, Pays-Bas
194 1190 PAEHLKE FRANK 07:40:55:000 D 72 251.90 KARLSRUHE, ALLEMAGNE
195 1651 DEWAELE MICHEL 07:40:55:000 F 16 313.50 ZUYDCOOTE, FRANCE
196 1634 RAAIJMAKERS KAJ 07:41:24:000 C 34 293.70 Maastricht, Pays-Bas
197 638 KRAAIJEVELD ARJEN 07:41:42:000 E 69 255.20 EMMERLOORD, Pays-bas
198 868 DODDS ALAN 07:41:55:000 G1 3 327.80 REIMS, FRANCE
199 1394 CORLIN CHRISTENSEN ULRIK 07:42:02:000 E 70 254.10 KBENHAVN , DANEMARK
200 1304 COLLARD NICOLAS 07:42:15:000 C 35 292.60 LA ROCHE SUR FORON, France
201 1820 PINNA ERIC 07:42:20:000 E 71 253.00 SAINT ANDRE, FRANCE
202 927 DE PRUYSSENAERE IMO 07:42:23:000 C 36 291.50 UTRECHT, Pays-Bas
203 1492 MASSON RENAUD 07:42:33:000 E 72 251.90 GERARDMER, France
204 210 BERNAGAUD CYRILLE 07:42:41:000 D 73 250.80 BRON, FRANCE
205 311 BONNENGE BENJAMIN 07:42:45:000 C 37 290.40 HAINE SAINT PIERRE, BELGIQUE
206 410 HERWIJNEN-VAN JAN 07:42:52:000 E 73 250.80 BUSSUM, Pays-Bas
207 299 THEIN ALAIN 07:43:06:000 F 17 312.40 PETANGE, LUXEMBOURG
208 682 VERTADIER ERIC 07:43:14:000 E 74 249.70 SAULX MARCHAIS, FRANCE
209 183 DEBAYE SEBASTIEN 07:43:21:000 D 74 249.70 REBAIX, BELGIQUE
210 339 NIEUWLAAT REINIER 07:43:22:000 D 75 248.60 BLEISWIJK, Pays-bas
211 190 CHAPON XAVIER 07:44:03:000 D 76 247.50 CUNELIERES, FRANCE
212 1612 EVERAERT GERDIE 07:44:13:000 D 77 246.40 LOKEREN, BELGIQUE
213 326 NOVILLO ANDRES 07:44:34:000 E 75 248.60 JOUARS PONTCHARTRAIN, FRANCE
214 1031 WIGGERS ARTHUR 07:44:51:000 F 18 311.30 s-Gravenhage, Pays-Bas
215 150 HERCKEL DOMINIQUE 07:45:09:000 G1 4 326.70 ANTIBES, FRANCE
216 763 ANDRIES HERMAN 07:45:09:000 E 76 247.50 ANTWERPEN, BELGIQUE
217 1500 MALLOTTEAUX FABIAN 07:45:11:000 E 77 246.40 SAMBREVILLE, BELGIQUE
218 1741 BAILLY JACQUES 07:45:54:000 F 19 310.20 AYWAILLE, BELGIQUE
219 266 HOLVOET JEREMY 07:45:55:000 D 78 245.30 CHARTRETTES, France
220 1508 RUYMEN MARC 07:45:58:000 E 78 245.30 GINGELOM, BELGIQUE
221 1059 VAN MUNSTER FLORIS 07:46:03:000 D 79 244.20 AMSTELVEEN, Pays-Bas
222 1072 MEESTER ROBERT 07:46:03:000 E 79 244.20 AMSTERDAM, Pays-Bas
223 220 SCHAAFSMA HARCO 07:46:23:000 E 80 243.10 RIJNSBURG, Pays-bas
224 1462 CAGNE SEBASTIEN 07:46:50:000 D 80 243.10 MALBOUHANS, FRANCE
225 429 MOONS ERIC 07:47:29:000 E 81 242.00 TESSENDERLO, BELGIQUE
226 1728 RUYSEN ROHNNY 07:47:38:000 E 82 240.90 AS, BELGIQUE
227 1627 CREMERS DIRK 07:47:50:000 E 83 239.80 AS, BELGIQUE
228 1784 FIRER ERIC 07:48:04:000 D 81 242.00 OBERHAUSBERGEN, France
229 376 PETREMENT PHILIPPE 07:48:10:000 D 82 240.90 BESANCON, France
230 152 SEVENOIS WIM 07:48:14:000 E 84 238.70 WAARSCHOOT, BELGIQUE
231 491 AUGUSTIJNS FRANK 07:48:38:000 E 85 237.60 ESSEN, BELGIQUE
232 1342 MASSET NICOLAS 07:48:40:000 C 38 289.30 FERE CHAMPENOISE, FRANCE
233 743 VAN MEGEN ROBBERT 07:48:45:000 E 86 236.50 , Pays-Bas
234 1727 LETEN TONY 07:48:52:000 E 87 235.40 HELCHTEREN, Belgique
235 861 DETZ MIKKEL 07:48:57:000 D 83 239.80 KOLDING, DANEMARK
236 621 VAN DORP FILIP 07:49:04:000 E 88 234.30 DRONGEN, BELGIQUE
237 1726 TIMMERMANS WIM 07:49:08:000 F 20 309.10 HOUTHALEN-HELCHTEREN, Belgique
238 823 SURPIERRE THONY 07:49:42:000 D 84 238.70 BRAY, BELGIQUE
239 365 VAN DE BELT TOM 07:49:53:000 C 39 288.20 NIJMEGEN, Pays-Bas
240 1705 DE TROYER DIRK 07:50:06:000 E 89 233.20 NINOVE, BELGIQUE
241 13 RICHARDSON PETER 07:50:17:000 E 90 232.10 LONDON, Royaume-Uni
242 263 GEENEN MARTYN 07:50:27:000 D 85 237.60 KINDERDIJK, Pays-Bas
243 1256 TRUYAERT EDDY 07:50:31:000 E 91 231.00 PITTEM, BELGIQUE
244 224 NECKEBROECK PETER 07:50:32:000 E 92 229.90 Appelterre, Belgique
245 1022 MORREN KRIS 07:50:36:000 D 86 236.50 TIENEN, BELGIQUE
246 1069 VERHAGE ERIK 07:50:36:000 D 87 235.40 TERNEUZEN, Pays-Bas
247 626 KINT FILIP 07:50:46:000 D 88 234.30 ZELE, BELGIQUE
248 167 ANGST JEAN MARC 07:50:53:000 E 93 228.80 ALBE, France
249 1494 BUDO NICO 07:50:57:000 D 89 233.20 SINT TRUIDEN, BELGIQUE
250 279 ALEMPS FLORIMOND 07:50:58:000 D 90 232.10 GUEWENHEIM, FRANCE
251 543 FONNY MARTENS 07:51:06:000 F 21 308.00 KOEWACHT, Pays-Bas
252 1643 MATHOT MICHAEL 07:51:14:000 D 91 231.00 WAHA, BELGIQUE
253 557 SIERENS WESLEY 07:51:17:000 C 40 287.10 WEVELGEM, BELGIQUE
254 913 OOSTERMAN PETER 07:51:21:000 F 22 306.90 NOOTDORP, Pays-Bas
255 355 VINCENT PASCAL 07:51:34:000 E 94 227.70 THURINS, France
256 934 OOMEN WIM 07:51:39:000 F 23 305.80 ROOSENDAAL, Pays-Bas
257 1742 FISCHER ERIC 07:51:40:000 E 95 226.60 ILLKIRCH GRAFFENSTADEN, FRANCE
258 315 GROEN BOB 07:51:44:000 G1 5 325.60 GOUDA, Pays-bas
259 80 BURGER SJORS 07:51:50:000 F 24 304.70 LEKKERKERK, Pays-Bas
260 1562 DEVRIES ARJO 07:51:51:000 D 92 229.90 DEN HAAG, Pays-Bas
261 381 VAN WEVERENBERGH BRUNO 07:52:01:000 E 96 225.50 BOST, BELGIQUE
262 1657 VAN LOON SJOERD 07:52:28:000 D 93 228.80 NIJMEGEN, Pays-Bas
263 1787 CELET CHRISTOPHE 07:52:39:000 D 94 227.70 BRIANCON, FRANCE
264 469 KREMER RICHARD 07:52:41:000 E 97 224.40 GRONINGEN, Pays-Bas
265 1010 EYNATTEN MICHEL 07:52:41:000 D 95 226.60 GROOT-BIJGAARDEN, BELGIQUE
266 968 ARTS HENRI 07:52:46:000 F 25 303.60 OIJEN, Pays-Bas
267 1274 VANHOVE DAVE 07:53:05:000 D 96 225.50 ZEDELGEM, BELGIQUE
268 1513 FOURSIN FABIEN 07:53:12:000 E 98 223.30 HINDISHEIM, FRANCE
269 304 LIEDENBAUM HUGO 07:53:18:000 D 97 224.40 Arnhem, Pays-Bas
270 463 VAN DEN DRIES ADRIJO 07:53:18:000 E 99 222.20 S HEERENHOEK, Pays-Bas
271 722 ROBIN BERTRAND 07:53:18:000 D 98 223.30 FRANCHEVILLE, France
272 1607 LAMBOLEZ JEAN CLAUDE 07:53:51:000 G1 6 324.50 REMIREMONT, FRANCE
273 1744 DEUCHERT STEPHAN 07:54:09:000 E 100 221.10 KARLSRUHE, ALLEMAGNE
274 1758 MANDEL ALEXANDRE 07:54:15:000 C 41 286.00 CULMONT, FRANCE
275 1306 TRAAS NATHAN 07:54:32:000 C 42 284.90 KRABBENDIJKE, Pays-Bas
276 770 HERMANS LIEVEN 07:54:37:000 E 101 220.00 BORNEM, BELGIQUE
277 1753 PLOZNER LIONEL 07:54:50:000 D 99 222.20 ECKBOLSHEIM, FRANCE
278 451 VANDAMME RONNY 07:55:00:000 E 102 218.90 WERVIK, BELGIQUE
279 1700 DE POURCQ PIETER 07:55:13:000 C 43 283.80 GENT, BELGIQUE
280 895 OSTERGAARD LARS 07:55:14:000 C 44 282.70 ODENSE, DANEMARK
281 1376 GROSS ROBY 07:55:16:000 E 103 217.80 GEISWILLER, FRANCE
282 827 DEWINTER MICHEL 07:55:19:000 F 26 302.50 CHATELET, Belgique
283 1875 GOVAERTS JOHAN 07:55:20:000 D 100 221.10 HEIST OP DEN BERG, BELGIQUE
284 971 BONGERS FRANS 07:55:31:000 F 27 301.40 NEDERWEERT, Pays-Bas
285 825 DE VET PATRICK 07:55:41:000 E 104 216.70 BRASSCHAAT, BELGIQUE
286 495 HOOGENBOOM ARJEN 07:55:42:000 E 105 215.60 RYSWYK, Pays-Bas
287 215 HANTZ JACQUES 07:55:57:000 F 28 300.30 ST AMARIN, FRANCE
288 1760 MORIN STEPHANE 07:56:11:000 E 106 214.50 SELESTAT, FRANCE
289 1007 PIETERS LUC 07:56:13:000 E 107 213.40 HOFSTADE, BELGIQUE
290 357 URBAIN PASCAL 07:56:16:000 D 101 220.00 WONDELGEM, BELGIQUE
291 1659 OUDSHOORN LOUIS 07:56:19:000 D 102 218.90 LEIDERDORP, Pays-bas
292 1091 VAN CANGHEM WOUTER 07:56:27:000 C 45 281.60 MARIAKERKE, BELGIQUE
293 185 DE OLIVEIRA OSCAR 07:56:31:000 E 108 212.30 QUERRIEU, FRANCE
294 841 GYSEN ERIC 07:57:00:000 E 109 211.20 WILRIJK, BELGIQUE
295 1182 FURRER HANSJOERG 07:57:01:000 E 110 210.10 WINTERTHUR, SUISSE
296 1371 NIELSEN DAN HALAGER 07:57:11:000 E 111 209.00 EGAA, Danemark
297 272 OOSTENDORP VINCENT 07:57:31:000 E 112 207.90 MONNICKENDAM, Pays-Bas
298 1406 MARTENS DENNIS 07:57:53:000 C 46 280.50 Utrecht, Pays-Bas
299 1230 ANSSELIN KEVIN 07:58:30:000 C 47 279.40 MAGENTA, FRANCE
300 420 MERCKLE JEAN 07:58:43:000 F 29 299.20 MITTELWIHR, FRANCE
301 235 VAN ORSOUW ROLF 07:58:45:000 D 103 217.80 OSS, Pays-bas
302 1372 JENSEN KENNETH HOLM 07:58:48:000 E 113 206.80 HJORTSHOEJ, Danemark
303 1294 DE WEVER FILIP 07:59:13:000 D 104 216.70 ZONNEGEM, BELGIQUE
304 1730 ONNEN MARC 07:59:17:000 E 114 205.70 OEGSTGEEST, Pays-Bas
305 1589 VAN GYSEGHEM KURT 07:59:30:000 E 115 204.60 NIEUWERKERKEN, BELGIQUE
306 436 SCHIPPERS ANDRE 07:59:47:000 F 30 298.10 BARENDRECHT, Pays-Bas
307 997 LITTERST MARTIN 08:00:05:000 E 116 203.50 HEIDELBERG, ALLEMAGNE
308 298 LARRIERE MICHEL 08:00:07:000 E 117 202.40 SAONE, FRANCE
309 888 KUSTER EVERT 08:00:07:000 F 31 297.00 BEVERWIJK, Pays-Bas
310 435 MERABTI HAMIDE 08:00:31:000 E 118 201.30 ST PATHUS, FRANCE
311 1278 GOFFARD AXEL 08:00:42:000 D 105 215.60 HUY, BELGIQUE
312 181 WAAIJER LEONTIEN 08:00:52:000 A 2 328.90 ROTTERDAM, Pays-Bas
313 1194 RIGOLLE JAN 08:00:53:000 D 106 214.50 KUURNE, BELGIQUE
314 1353 JOURDAN / TOURQUI JEAN LUC / SORAYA 08:01:23:000 E 119 200.20 NEUPIRE, BELGIQUE
315 1028 CLEMENS STEFAN 08:01:34:000 D 107 213.40 WILSELE, Belgique
316 1225 VAN KONINGSVELD EELCO 08:01:54:000 D 108 212.30 ZAANDAM, Pays-Bas
317 855 Stig Kjersgaard Nielsen 08:02:00:000 E 120 199.10 J‘gerspris, DANEMARK
318 991 GOSSELIN PAUL 08:02:08:000 E 121 198.00 ABLON SUR SEINE, FRANCE
319 1782 ROMAIN RICHARD 08:02:28:000 D 109 211.20 UFFHOLTZ, FRANCE
320 555 VAN DER DOES MICHIEL 08:02:29:000 C 48 278.30 ERMELO, Pays-Bas
321 1450 DUBUIS ETIENNE 08:02:35:000 E 122 196.90 LE THOLY, FRANCE
322 431 DE VLEESSCHAUWER DAVID 08:02:36:000 C 49 277.20 ST.DENIJS WESTREM, BELGIQUE
323 1362 KNITTEL JEREMY 08:02:36:000 C 50 276.10 BETSCHDORF, FRANCE
324 1737 REBOUX SYLVAIN 08:02:37:000 C 51 275.00 BADEN, SUISSE
325 1045 SWINNEN JO 08:02:41:000 E 123 195.80 STOKROOIE, BELGIQUE
326 250 MARTIN STEPHANE 08:03:24:000 E 124 194.70 RICHWILLER, FRANCE
327 1165 VAN HIJFTE ARSEEN 08:03:39:000 G1 7 323.40 EVERGEM, BELGIQUE
328 1281 DE CLERCQ KOEN 08:03:41:000 E 125 193.60 UITBERGEN, BELGIQUE
329 240 JANSEN DIRK 08:03:56:000 C 52 273.90 VALKENSWAARD, Pays-Bas
330 438 VERSTRAATE DIRK 08:03:59:000 E 126 192.50 MIDDELBURG, Pays-bas
331 209 METZ MARTIN 08:04:05:000 E 127 191.40 SCHARRACHBERGHEIM, FRANCE
332 453 STEVENS BENNY 08:04:14:000 E 128 190.30 KESSEL-LO, BELGIQUE
333 696 GARLISI UMBERTO 08:04:14:000 E 129 189.20 LANAKEN, BELGIQUE
334 1388 BARBERET PHILIPPE 08:04:20:000 E 130 188.10 VILLEPAROIS, FRANCE
335 182 MANOJLOVIC BORISLAV 08:04:25:000 F 32 295.90 BOLLWILLER, FRANCE
336 1818 VAN KUIG CORNE 08:04:34:000 E 131 187.00 GROESBEEK, Pays-Bas
337 1873 HOLENWEG PIETER 08:04:57:000 F 33 294.80 KAISENANGST, SUISSE
338 165 SINOT CHRISTIAN 08:05:10:000 F 34 293.70 NANCY, FRANCE
339 1630 VAN VLIET LINDA 08:05:18:000 A 3 327.80 NIJMEGEN, Pays-Bas
340 316 PARADON ERIC 08:05:23:000 E 132 185.90 MARIGNY LES REULLEES, FRANCE
341 1312 ROBERT J.MICHEL 08:05:41:000 G1 8 322.30 DOLE, FRANCE
342 174 BREILLY MARC ANTOINE 08:05:42:000 E 133 184.80 LA FARLEDE, FRANCE
343 1244 BAKEROOT BRUNO 08:05:42:000 D 110 210.10 HARELBEKE, BELGIQUE
344 273 HOUTHOOFT PATRICK 08:06:00:000 D 111 209.00 HELMOND, Pays-Bas
345 843 GEERINCK WALTER 08:06:02:000 F 35 292.60 DEURNE (ANTWERPEN), BELGIQUE
346 141 TEIRLINCK CHRIS 08:06:16:000 D 112 207.90 MAARKDAL, BELGIQUE
347 5 REHMANN CARSTEN 08:06:17:000 D 113 206.80 ESSEN, ALLEMAGNE
348 4 DE CORTE PETER 08:07:06:000 E 134 183.70 DRONGEN, BELGIQUE
349 1209 VAN DER VELDEN ROB 08:07:20:000 F 36 291.50 ALMERER, Pays-Bas
350 1591 FRANCK THIERRY 08:07:26:000 E 135 182.60 SAINT HUBERT, BELGIQUE
351 781 VOGELEISEN FRANCK 08:07:40:000 C 53 272.80 OBERNAI, FRANCE
352 1867 BASSOMPIERRE AURELIEN 08:07:40:000 C 54 271.70 ANDLAU, FRANCE
353 629 PERDAEN RONNY 08:07:45:000 D 114 205.70 RIJKEVORSEL, BELGIQUE
354 692 WIGGERS TOM 08:07:48:000 E 136 181.50 LETTELE, Pays-Bas
355 1444 DELFORCHE MAARTEN 08:07:51:000 C 55 270.60 MELLE, BELGIQUE
356 378 GRAEFFLY YVES 08:07:58:000 G1 9 321.20 CAPPEL, FRANCE
357 330 VAN DAELE GERT 08:08:18:000 D 115 204.60 AARTSELAAR, BELGIQUE
358 373 OUDOT ARNAUD 08:08:40:000 D 116 203.50 OELLEVILLE, FRANCE
359 871 HOEKS DIRK 08:08:48:000 D 117 202.40 BERGEIJK, Pays-Bas
360 503 NOUWENS THEO 08:09:01:000 E 137 180.40 HELMOND, Pays-Bas
361 974 VAN BEUNINGEN ALBERT 08:09:06:000 E 138 179.30 EWIJK, Pays-Bas
362 12 DICKHOUT JAN 08:09:34:000 F 37 290.40 EINDHOVEN, Pays-Bas
363 518 KLOECK WIM 08:09:34:000 C 56 269.50 STABROEK, BELGIQUE
364 1606 PETITJEAN FREDERIC 08:09:41:000 E 139 178.20 DOMMARTIN LES REMIREMONT, FRANCE
365 144 LIPP FRANCIS 08:09:43:000 F 38 289.30 FELLERING, FRANCE
366 439 BREUKERS MARC 08:09:47:000 E 140 177.10 EINDHOVEN, Pays-Bas
367 1736 HEILIG MARTIAL 08:09:53:000 F 39 288.20 PETITE ROSSELLE, FRANCE
368 707 KERCKHOFS LUC 08:10:03:000 F 40 287.10 EREMBODEGEM, BELGIQUE
369 1355 HOFFMANN ROMAIN 08:10:22:000 E 141 176.00 STEINSEL, LUXEMBOURG
370 689 DE BRUYNE DANNY 08:10:42:000 E 142 174.90 WAARSCHOOT, BELGIQUE
371 1802 DEBISSCHOP KENNY 08:10:46:000 C 57 268.40 SCHORISSE, BELGIQUE
372 1748 CLEPKENS JAKOB 08:11:09:000 C 58 267.30 EVERGEM, BELGIQUE
373 1793 ROM COLTHOFF JURRIEN 08:11:37:000 C 59 266.20 AMSTERDAM, Pays-Bas
374 853 RAYMACKERS DIRK 08:11:43:000 E 143 173.80 SINT-TRUIDEN, BELGIQUE
375 1101 BENOY DANY 08:11:54:000 E 144 172.70 GELDROP, Pays-Bas
376 1212 NAUMER RALF 08:11:55:000 E 145 171.60 LAMBRECHT, Allemagne
377 375 VAN LOOY DAVY 08:11:58:000 D 118 201.30 GENTBRUGGE, BELGIQUE
378 364 VOUILLOZ MARC 08:11:59:000 D 119 200.20 MARTIGNY, SUISSE
379 447 DE VILLIERS JONATHAN 08:12:17:000 E 146 170.50 PANTIN, FRANCE
380 644 PETER DE GRAUWE 08:12:17:000 E 147 169.40 HERDERSEM, BELGIQUE
381 1752 VERMEIR EDDY 08:12:21:000 E 148 168.30 WOLVERTEN, BELGIQUE
382 851 VAN DER TAS DAAN 08:12:27:000 D 120 199.10 AMSTERDAM, Pays-Bas
383 685 VANDOOREN DANNY 08:12:29:000 D 121 198.00 KAMPENHOUT, BELGIQUE
384 507 VAN DER VLUGT ROB 08:12:30:000 E 149 167.20 DELFT, Pays-Bas
385 891 Jan M›ller 08:12:33:000 F 41 286.00 Nyborg, DANEMARK
386 172 GOURMET PATRICK 08:12:58:000 F 42 284.90 WATTRELOS, FRANCE
387 1792 HILVERING BAT 08:13:20:000 C 60 265.10 UTRECHT, Pays-Bas
388 1766 BOULANGER DIDIER 08:13:55:000 F 43 283.80 SOLRE LE CHATEAU, France
389 1375 REINERT PATRICK 08:14:33:000 E 150 166.10 STEINSEL, LUXEMBOURG
390 1694 MEEUWESSEN ROB 08:14:39:000 C 61 264.00 RIEN, Pays-Bas
391 1577 STROEVE SYBERT 08:14:53:000 E 151 165.00 AMSTERDAM, Pays-Bas
392 535 DEN DIKKEN ALEXANDER 08:14:54:000 D 122 196.90 NIJKERK, Pays-bas
393 923 VAN DER WERF TEUNIS 08:15:10:000 F 44 282.70 NUMANSDORP, Pays-Bas
394 1259 GAUME CHRISTOPHER 08:15:15:000 D 123 195.80 HONDAINVILLE, FRANCE
395 1358 OP DE BEECK TOM 08:15:22:000 D 124 194.70 MECHELEN, BELGIQUE
396 411 RINGOOT GINO 08:15:23:000 E 152 163.90 DENDERMONDE, BELGIQUE
397 1855 FRITSCH DAVID 08:15:33:000 D 125 193.60 AMNEVILLE, FRANCE
398 917 GUNST ERIC 08:15:39:000 E 153 162.80 SCHIEDAM, Pays-bas
399 337 COPPENS PHILIPPE 08:15:48:000 E 154 161.70 HARELBEKE, BELGIQUE
400 1648 VANACKER STIJN 08:15:52:000 D 126 192.50 OOSTROZEBEKE, BELGIQUE
401 631 AERTS DIRK 08:15:56:000 E 155 160.60 KAGGEVINNE, BELGIQUE
402 1487 BIERENS PETER 08:16:05:000 E 156 159.50 EINDHOVEN, Pays-Bas
403 512 GERRITSEN MARTIN 08:16:36:000 E 157 158.40 ZAANDIJK, Pays-Bas
404 1264 BENTOFTE LARSEN MADS 08:16:39:000 D 127 191.40 KOLDING, DANEMARK
405 630 DIRK CLAEYS 08:16:48:000 F 45 281.60 HOEILAART, BELGIQUE
406 309 DURUPT ALAIN 08:17:05:000 G1 10 320.10 NICE, FRANCE
407 291 JACOBS ROLAND 08:17:13:000 F 46 280.50 SAINT-SERVAIS, BELGIQUE
408 680 LETIZIA DIDIER 08:17:21:000 E 158 157.30 LES CLAYES SOUS BOIS, FRANCE
409 993 EECKHOUT PIETER 08:17:22:000 D 128 190.30 HOREBEKE, BELGIQUE
410 1397 LARBALETRIER IRWIN 08:17:22:000 C 62 262.90 NANCY, France
411 1665 JEANMAIRE LAURENT 08:17:29:000 E 159 156.20 FOUGEROLLES, FRANCE
412 858 THOMSEN FLEMMING 08:17:31:000 E 160 155.10 HASSELAGER, DANEMARK
413 188 JEANDEL FRANCIS 08:17:36:000 G1 11 319.00 Mirecourt, France
414 1538 VANACKER JOACHIM 08:17:37:000 C 63 261.80 WERVIK, BELGIQUE
415 1103 DE GROOT JAN 08:17:40:000 E 161 154.00 OUDERKERK A.D. AMSTEL, Pays-bas
416 901 DE VLIEGER BRAM 08:17:41:000 D 129 189.20 AMSTERDAM, Pays-Bas
417 1066 ANSOUT BERTRAND 08:17:43:000 E 162 152.90 ST RIQUIER ES PLANS, FRANCE
418 804 VAN ACHTER ROBBY 08:18:02:000 D 130 188.10 DWORP, FRANCE
419 530 MOLS NICO 08:18:03:000 E 163 151.80 VOSSELAAR, BELGIQUE
420 377 FRESSE BENOIT 08:18:16:000 D 131 187.00 LILLE, FRANCE
421 569 Slingerland Ad 08:18:24:000 E 164 150.70 Haastrecht, Pays-Bas
422 1451 CUFER DANIEL 08:18:29:000 E 165 149.60 FRANCALTROFF, FRANCE
423 1667 HIRTZMANN JACKY 08:18:45:000 D 132 185.90 BEUVEILLE, FRANCE
424 120 HEIJL MARKO 08:18:56:000 E 166 148.50 BOECHOUT, BELGIQUE
425 1819 JAMEAUX BERNARD 08:18:58:000 F 47 279.40 SCEY SUR SAONE, FRANCE
426 936 SILVIUS PETER 08:19:13:000 E 167 147.40 ZEVENBERGEN, Pays-Bas
427 1655 VANDERHASSELT KAREL 08:19:14:000 F 48 278.30 KOBBEGEM, Belgique
428 1745 D HOOGE MARC 08:19:29:000 E 168 146.30 RAMELDANGE, LUXEMBOURG
429 239 VELTER MIKE 08:19:32:000 C 64 260.70 ZUTPHEN, Pays-Bas
430 329 VANDEN WIJNGAERT ARNE 08:19:42:000 D 133 184.80 Zonhoven, Belgique
431 1311 HARTMANN MICHEL 08:19:53:000 F 49 277.20 LINTHAL, France
432 1465 APERS LUC 08:19:58:000 E 169 145.20 BURCHT, BELGIQUE
433 967 FLORIE ERWIN 08:20:09:000 D 134 183.70 BERGHEM, Pays-Bas
434 1003 BOSCH CHRISTIAN 08:20:17:000 F 50 276.10 WITTENHEIM, FRANCE
435 1709 VERMEIREN RONNY 08:20:38:000 E 170 144.10 PEER, BELGIQUE
436 926 DE PRUYSSENAERE ROBIN 08:20:43:000 C 65 259.60 LEUSDEN, Pays-Bas
437 768 SCHUERMANS MARC 08:20:59:000 D 135 182.60 POEDERLEE, BELGIQUE
438 481 VOORNEVELD REINARD 08:21:04:000 E 171 143.00 HOOFDORP, Pays-Bas
439 623 WIELS LIEVEN 08:21:40:000 E 172 141.90 ZELE, BELGIQUE
440 859 HAGENSEN CHRISTIAN 08:21:44:000 F 51 275.00 TRIGE, DANEMARK
441 427 VANROMPAY JOHAN 08:21:47:000 E 173 140.80 DIEST / SCHAFFEN, BELGIQUE
442 1456 De Jonge Wouter 08:21:53:000 D 136 181.50 Ouderkerk, Pays-Bas
443 1285 BRAYE JACQUES 08:22:01:000 E 174 139.70 MULHOUSE, France
444 31 FISCHER STEFANIE 08:22:04:000 A 4 326.70 FREIBURG, ALLEMAGNE
445 1576 VERSCHUERE PHILIP 08:22:09:000 E 175 138.60 WINGENE, BELGIQUE
446 312 DE MUNTER DAMIEN 08:22:25:000 C 66 258.50 HOUDENG AIMERIES, Belgique
447 1746 BOQUET DAVID 08:22:25:000 D 137 180.40 RAMBOUILLET, FRANCE
448 521 FLAMENT DOMINIQUE 08:22:27:000 E 176 137.50 LE ROEULX, BELGIQUE
449 1078 LUTKE EGBERT JAN 08:22:32:000 E 177 136.40 HELMOND, Pays-Bas
450 1097 NAERT TIM 08:22:32:000 D 138 179.30 WERVIK, BELGIQUE
451 1428 SCHOUTEN RICHARD 08:22:38:000 E 178 135.30 DEN HAAG, Pays-bas
452 1440 WEERNINK TIM 08:22:42:000 D 139 178.20 NIJMEGEN, Pays-Bas
453 1343 GOOSSENS PATRICK 08:22:43:000 E 179 134.20 HERZELE, BELGIQUE
454 618 PHILIPS DIRK 08:22:46:000 D 140 177.10 ZELE, BELGIQUE
455 1156 TROELS JOHNSEN 08:23:01:000 D 141 176.00 GLAMSBJERG, DANEMARK
456 1282 VAN DER KRUYS ROBIN 08:23:15:000 C 67 257.40 MAARHEEZE, Pays-Bas
457 1226 ANSSELIN DIDIER 08:23:38:000 E 180 133.10 EPERNAY, FRANCE
458 1186 INT VEN JAN 08:23:43:000 D 142 174.90 ARENDONK, BELGIQUE
459 1169 NININO CHRISTOPHE 08:24:03:000 E 181 132.00 BERCENAY EN OTHE, FRANCE
460 489 VAN ESBROECK PAUL 08:24:08:000 F 52 273.90 EKEREN, BELGIQUE
461 742 JONKERS ROELOF 08:24:27:000 D 143 173.80 URK, Pays-Bas
462 635 PAUWELS LUC 08:24:33:000 E 182 130.90 WAARSCHOOT, Belgique
463 616 JACOBS WIM 08:24:49:000 D 144 172.70 ZELE, BELGIQUE
464 693 VELDHUIS BERRIE 08:24:51:000 E 183 129.80 APELDOORN, Pays-Bas
465 1525 FLEDDERUS HERMAN 08:24:51:000 E 184 128.70 NIEUW AMSTERDAM, Pays-Bas
466 594 KAISEN PHILIPPE 08:24:52:000 F 53 272.80 BOIS DE VILLERS, BELGIQUE
467 53 CHOUFFART JACQUES 08:24:54:000 F 54 271.70 SPRIMONT, BELGIQUE
468 580 GRITTI DAVID 08:24:56:000 D 145 171.60 LONGWY, FRANCE
469 860 Ove Bruun 08:24:56:000 F 55 270.60 J‘gerspris, DANEMARK
470 553 DINNESEN RALF 08:24:57:000 D 146 170.50 OPLOO, Pays-Bas
471 1266 VAN HECKE ETIENNE 08:25:03:000 G1 12 317.90 EVERGEM, BELGIQUE
472 494 SMIT KEES 08:25:21:000 F 56 269.50 DEN HAAG, Pays-Bas
473 519 JONGENEELEN STIJN 08:25:29:000 C 68 256.30 KAPELLEN, BELGIQUE
474 1515 VAN ZWIENEN MARIUS 08:25:36:000 E 185 127.60 LEKKERKERK, Pays-Bas
475 1495 GROSEMANS JOHAN 08:25:55:000 D 147 169.40 BORGLOON, Belgique
476 1854 SOULE DAVID 08:25:57:000 D 148 168.30 FLORANGE, FRANCE
477 1529 VANDENBERGHE KAREL 08:26:10:000 D 149 167.20 GULLEGEM, Belgique
478 1546 LONGO FRANCO 08:26:14:000 E 186 126.50 INGELDORF, LUXEMBOURG
480 361 CONNAULT ROMAIN 08:26:19:000 D 150 166.10 COURBEVOIE, FRANCE
481 416 BROECKX LUDO 08:26:34:000 G1 13 316.80 WELLEN, BELGIQUE
482 756 RICHARD FREDERIC 08:26:42:000 D 151 165.00 LES ESSARTS LE ROI, FRANCE
483 1175 WEIBEL MICHAEL 08:26:43:000 E 187 125.40 AARHUS, DANEMARK
484 1723 ANDRIEUX OLIVIER 08:26:52:000 E 188 124.30 ABLON SUR SEINE, FRANCE
485 1620 DEWEERDT CHRISTOPHE 08:27:06:000 D 152 163.90 WORTEGEM PETEGEN, BELGIQUE
486 496 SPOOR JAAP 08:27:18:000 F 57 268.40 RIJSWIJK, Pays-Bas
487 529 GEVERS MARC 08:27:18:000 F 58 267.30 VOSSELAAR, BELGIQUE
488 1204 PEERLINGS MAARTEN 08:27:21:000 D 153 162.80 DEN BOSCH, Pays-Bas
489 663 DE LEEUW RENE 08:27:34:000 F 59 266.20 HEER HENDRIKS KINDEREN, Pays-Bas
490 363 EMORINE PASCAL 08:27:41:000 E 189 123.20 BORNEL, FRANCE
491 723 ROUX ANTHONY 08:27:43:000 D 154 161.70 ST SYMPHORIEN SUR COISE, FRANCE
492 862 VAN DER LOOIJ BART 08:27:45:000 D 155 160.60 EERSEL, Pays-Bas
493 570 TUYTEL CEES 08:27:49:000 E 190 122.10 LUTTELGEEST, Pays-Bas
494 885 SALOMONSEN BENT 08:27:51:000 F 60 265.10 MUNKEBO, DANEMARK
495 476 PETITFOUR JEAN LOUIS 08:27:53:000 F 61 264.00 CHANTRAINE, FRANCE
496 573 KEIJSERS MARK 08:28:29:000 D 156 159.50 UTRECHT, Pays-Bas
497 336 TACK JOHAN 08:28:32:000 E 191 121.00 HEULE, BELGIQUE
498 1596 EKKELBOOM BERT 08:28:41:000 F 62 262.90 APEBLOOM, Pays-Bas
499 584 DE SMET STANY 08:28:42:000 E 192 119.90 Geraardsbergen, Belgique
500 1402 RIGOT PHILIPPE 08:28:42:000 E 193 118.80 MORNIMONT, BELGIQUE
501 1621 LALLOZ ANTOINE 08:28:42:000 F 63 261.80 Perouse, France
502 1534 DE MEYER ROBRECHT 08:28:45:000 E 194 117.70 HOVE, BELGIQUE
503 1025 SERRANNE KEVIN 08:28:54:000 D 157 158.40 KEERBERGEN, BELGIQUE
504 830 PIETERS EDOUARD 08:29:32:000 F 64 260.70 ANTWERPEN, BELGIQUE
505 1639 BECKX TOM 08:29:45:000 D 158 157.30 SCHERPENHEUVEL, BELGIQUE
506 1468 OUTMANNS MARTIN 08:30:08:000 D 159 156.20 ARLON, BELGIQUE
507 619 PIETERS BART 08:30:11:000 D 160 155.10 LEBREKE, BELGIQUE
508 1626 HILHORST JOACHIM 08:30:26:000 D 161 154.00 NIJMEGEN, Pays-Bas
509 1215 LOUIS DANIEL 08:30:27:000 D 162 152.90 RHINAU, FRANCE
510 1293 CERVEAU FABRICE 08:30:33:000 E 195 116.60 NAILLY, FRANCE
511 1464 LEPERS STEVEN 08:30:35:000 J 4 326.70 AALBEKE, BELGIQUE
512 1611 LEJEUNE SYLVAIN 08:30:39:000 C 69 255.20 LIEGE, BELGIQUE
513 822 HERBIET BENEDICTE 08:30:56:000 AB 2 328.90 BRAY, BELGIQUE
514 1421 NOORLAND ED 08:30:57:000 E 196 115.50 BOSKOOP, Pays-bas
515 1431 MALHERBE JEAN LUC 08:30:59:000 D 163 151.80 OTHEE, Belgique
516 318 VERMEULEN RUUD 08:31:00:000 E 197 114.40 OSS, Pays-bas
517 818 SIMONS LUC 08:31:25:000 D 164 150.70 ZOERSEL, BELGIQUE
518 1356 TORFS KURT 08:31:32:000 D 165 149.60 PUURS, BELGIQUE
519 720 BRIGGEMAN ARD 08:31:34:000 D 166 148.50 ROCKANJE, Pays-Bas
520 1581 WERNER GEUDENS 08:31:35:000 D 167 147.40 TURNHOUT, BELGIQUE
521 992 WINGELAAR ROBERT 08:31:40:000 E 198 113.30 BOVENKARSPEL, Pays-Bas
522 1089 SCHOTTE BART 08:31:54:000 C 70 254.10 Siont-Pauwels, Belgique
523 1435 VAN EEKHOUT PHILIPPE 08:32:14:000 E 199 112.20 BOECHOUT, BELGIQUE
524 1275 RYDE MARC 08:32:47:000 E 200 111.10 BRUGGE, BELGIQUE
525 1874 LECLERC PIERRE JEAN 08:32:53:000 E 201 110.00 COLMAR, FRANCE
526 1632 BOLLEN STIJN 08:33:04:000 D 168 146.30 GENK, BELGIQUE
527 1666 FOULON DAVID 08:33:06:000 E 202 108.90 VILLERS LE ROND, FRANCE
528 1029 WILLAERT MARIO 08:33:08:000 D 169 145.20 IZEGEM, BELGIQUE
529 1374 DESTREBECQ YOHAN 08:33:08:000 D 170 144.10 BASECLES, BELGIQUE
530 942 VAN HEYST ROBERT 08:33:10:000 E 203 107.80 KAATSHEUVEL, Pays-Bas
531 552 EICHENBERGER OLIVIER 08:33:16:000 E 204 106.70 DUDINGEN, SUISSE
532 1079 IRAGNE CHRISTOPHE 08:33:42:000 D 171 143.00 METZ, FRANCE
533 1200 HOLLEBEKE FREDERIC 08:33:46:000 D 172 141.90 PALAISEAU, FRANCE
534 1519 VAN DER TAS AAD 08:34:00:000 F 65 259.60 UTRECHT, Pays-Bas
535 840 HANNES WALTER 08:34:03:000 F 66 258.50 MOL, BELGIQUE
536 1365 KIENTZY PHILIPPE 08:34:05:000 F 67 257.40 METZ, FRANCE
537 1776 DEMEULENAERE KOEN 08:34:18:000 E 205 105.60 RUMBEKE, BELGIQUE
538 615 DEPROUW HERMAN 08:34:20:000 E 206 104.50 ZELE, BELGIQUE
539 603 VAN ROO IVE 08:34:22:000 D 173 140.80 RIJMENAM, BELGIQUE
540 658 VAN DIJK VINCENT 08:34:24:000 D 174 139.70 KRAGGENBURG, Pays-Bas
541 688 BOELENS ERWIN 08:34:26:000 F 68 256.30 EEKLO, BELGIQUE
542 932 NUSSBAUMER OTTO 08:34:33:000 E 207 103.40 RIJSWIJK, Pays-Bas
543 1779 PRUDHOMME DENIS 08:35:12:000 F 69 255.20 CHANTRAINE, FRANCE
544 898 SONDERGAARD SIMON 08:35:17:000 C 71 253.00 ODENSEE SO, DANEMARK
545 353 CHENOIX RENE 08:35:27:000 E 208 102.30 MARCHE-EN-FAMENNE, BELGIQUE
546 432 PRUYN RENE 08:35:29:000 F 70 254.10 ZOETERMEER, Pays-Bas
547 1310 SCHMITT LIONEL 08:35:32:000 E 209 101.20 MARLENHEIM, FRANCE
548 1478 MASTRONARDI DUILIO 08:35:35:000 E 210 100.10 ZELLWILLER, FRANCE
549 651 HENIGER FLORENS 08:35:46:000 D 175 138.60 DEN HOORN, Pays-Bas
550 605 HAAS CEDRIC 08:35:57:000 C 72 251.90 CERNAY, France
551 933 VERKERK CHRISTY 08:35:59:000 A 5 325.60 RIJSWIJK, Pays-Bas
552 1121 VAN DEN EEDE HERMAN 08:36:09:000 E 211 99.00 MOERZEKE, BELGIQUE
553 1750 BAUDSON DAVID 08:36:14:000 D 176 137.50 MARCINELLE, BELGIQUE
554 1656 VANDERHASSELT KLAAS 08:36:20:000 C 73 250.80 KOBBEGEM, BELGIQUE
555 328 MAZZARINI J.CLAUDE 08:36:21:000 F 71 253.00 MEXY, FRANCE
556 430 DE VLEESSCHAUWER EDDY 08:36:46:000 F 72 251.90 ERTVELDE, BELGIQUE
557 805 VANCUTSEM JOEL 08:36:54:000 E 212 97.90 LOT, BELGIQUE
558 459 PARODI DENIS 08:37:18:000 E 213 96.80 MOLLANS SUR OUVEZE, FRANCE
559 676 DONCKERS BENNY 08:37:29:000 E 214 95.70 VOSSELAAR, BELGIQUE
560 556 VAN ZEUMEREN JURRI 08:37:30:000 E 215 94.60 ERMELO, Pays-Bas
561 854 Mads K. Andersen 08:37:32:000 E 216 93.50 J‘gerspris, DANEMARK
562 965 DE LOOIJER MENNO 08:37:34:000 E 217 92.40 BERGHEM, Pays-Bas
563 1660 LEMOSY CLAUDE 08:37:42:000 F 73 250.80 CHAGEY, FRANCE
564 710 VAN DAMME STEVEN 08:37:47:000 C 74 249.70 DIEPENBEEK, BELGIQUE
565 1548 CLERICI LUDOVIC 08:37:52:000 F 74 249.70 BELFORT, FRANCE
566 1413 REMMERIE MAARTEN 08:37:54:000 E 218 91.30 ZWEVEGEM, BELGIQUE
567 362 BARAN JEROME 08:37:56:000 D 177 136.40 VOU, FRANCE
568 360 FOURNIER NICOLAS 08:37:58:000 D 178 135.30 PRUGNY, FRANCE
569 264 ESSELIN GILLES 08:38:03:000 E 219 90.20 CHATENOIS, FRANCE
570 831 PHILTJENS VALERE 08:38:05:000 F 75 248.60 DIEPENBEEK, BELGIQUE
571 976 BRINKSMA HANS 08:38:08:000 D 179 134.20 NIEUWLEUSEN, Pays-Bas
572 528 VAN DINGENEN JOS 08:38:16:000 E 220 89.10 VOSSELAAR, BELGIQUE
573 537 REMIJN JASPER 08:38:17:000 D 180 133.10 NIJKERK, Pays-Bas
574 320 SPRENGERS STEFAAN 08:38:19:000 C 75 248.60 KEERBERGEN, Belgique
575 186 VAN DER WEIDE AUKE BONNE 08:38:25:000 D 181 132.00 HEERENVEEN, Pays-Bas
576 912 VAN ETTEN SJAAK 08:38:34:000 F 76 247.50 NOOTDORP, Pays-Bas
577 1210 HETTINGA FRANS 08:38:52:000 E 221 88.00 CALGARY, CANADA
578 1531 SCHLENKER HORST 08:39:00:000 E 222 86.90 ROTTWEIL, ALLEMAGNE
579 461 RASCLARD DANIEL 08:39:19:000 E 223 85.80 NYONS, FRANCE
580 836 KONIECZNY MARK 08:39:28:000 D 182 130.90 DIEPENBEEK, BELGIQUE
581 414 MELDGARD MATHIAS 08:39:34:000 C 76 247.50 AALBORG, DANEMARK
582 1386 PRONK ANNETTE 08:39:47:000 AB 3 327.80 BENNEKOM, Pays-bas
583 1383 ROMKENS PAUL 08:39:48:000 E 224 84.70 BENNEKOM, Pays-bas
584 1743 BIRON DIDIER 08:39:50:000 F 77 246.40 MOSLINS, FRANCE
585 576 VERMUE MARTIN 08:39:51:000 E 225 83.60 MARKNESSE, Pays-bas
586 957 VAN NULAND SANDER 08:39:51:000 D 183 129.80 BERGHEM, Pays-Bas
587 1668 PUTMAN JOHAN 08:40:01:000 F 78 245.30 BAVIKHOVE, BELGIQUE
588 718 PRAET KRISTOFF 08:40:09:000 D 184 128.70 KALKEN, BELGIQUE
589 731 MOTTE DAVID 08:40:17:000 C 77 246.40 VIANE, BELGIQUE
590 970 ROVERS HAR 08:41:14:000 F 79 244.20 REUVER, Pays-Bas
591 590 JONGENEELEN DENNIS 08:41:42:000 C 78 245.30 EKEREN, BELGIQUE
592 613 DE VRIESE PETER 08:41:57:000 F 80 243.10 ZELE, BELGIQUE
593 1794 VAN DEN BRINK OSCAR 08:42:03:000 E 226 82.50 UTRECHT, Pays-Bas
594 1856 COTTRET SYLVAIN 08:42:22:000 D 185 127.60 AMIENS, France
595 415 LANSBERKEN BAS 08:42:28:000 D 186 126.50 LEUVEH, BELGIQUE
596 1014 PIETERS JOS 08:42:45:000 D 187 125.40 AFFLIGEM, Belgique
597 857 Finn Tranholm Larsen 08:43:28:000 F 81 242.00 J‘gerspris, DANEMARK
598 945 VAN LAARHOVEN MAURICE 08:43:40:000 E 227 81.40 KAATSHEUVEL, Pays-Bas
599 1242 VANEECKHOUTTE KARL 08:43:44:000 D 188 124.30 VICHTE, BELGIQUE
600 564 SPELEMAN TOM 08:43:45:000 E 228 80.30 MORTSEL, BELGIQUE
601 1661 BEL NOEL 08:43:46:000 F 82 240.90 LUZE, FRANCE
602 1177 VAN DER PLOEG GERHARD 08:44:25:000 D 189 123.20 KOEKANGE, Pays-Bas
603 1297 AUDENAERT NICO 08:44:36:000 D 190 122.10 BEVEREN WAAS, BELGIQUE
604 824 MAS JOHAN 08:44:40:000 E 229 79.20 SINT-TRUIDEN, BELGIQUE
605 1527 D HAENENS BART 08:44:55:000 D 191 121.00 LIERDE, BELGIQUE
606 1547 LANKHEET RONALD 08:45:01:000 E 230 78.10 HAAKSBERGEN, Pays-Bas
607 409 PEEK MARTIJN 08:45:03:000 D 192 119.90 WILNIS, Pays-Bas
608 1664 VAN ZON KEES 08:45:06:000 E 231 77.00 VELDHOVEN, Pays-Bas
609 1366 HAKVOORT WIM 08:45:13:000 F 83 239.80 EEMNES, Pays-Bas
610 998 MOEJBAEK OLE 08:45:15:000 F 84 238.70 ANSAGER, DANEMARK
611 850 LIBOT HENRI 08:45:22:000 F 85 237.60 BRASSCHAAT, BELGIQUE
612 1181 LARSEN TOM 08:45:50:000 E 232 75.90 GRASTEN, DANEMARK
613 229 DE BOER KORJUN 08:45:51:000 E 233 74.80 CASTRICUM, Pays-Bas
614 1291 FONSECA FERNAND 08:45:56:000 E 234 73.70 ST MARTIN DU TERTRE, FRANCE
615 571 LASSCHE MIRIAM 08:45:57:000 A 6 324.50 MARKNESSE, FRANCE
616 1057 OP T EYNDE PATRICK 08:45:58:000 E 235 72.60 KESSEL-LO, BELGIQUE
617 307 REGALES MARTIAL 08:46:12:000 E 236 71.50 LEUVILLE SUR ORGE, France
618 819 WAEYAERT DIMITRI 08:46:12:000 C 79 244.20 BRECHT, BELGIQUE
619 288 BOUWMEESTER DIEDERICK 08:46:26:000 D 193 118.80 DEN HAAG, Pays-Bas
620 1452 BURET MICHEL 08:47:18:000 F 86 236.50 OFFENHEIM, FRANCE
621 612 DE MEY GERD 08:47:25:000 D 194 117.70 ZELE, BELGIQUE
622 1821 LEHOUX MICHAEL 08:47:32:000 D 195 116.60 NANCY, FRANCE
623 1554 HENK RYKEN 08:47:52:000 E 237 70.40 BREDA, Pays-Bas
624 1558 COOLEN HANS 08:47:58:000 E 238 69.30 DEN HAAG, Pays-Bas
625 1075 VISSER MAARTEN 08:48:26:000 D 196 115.50 AMSTERDAM, Pays-Bas
626 1404 RENIER ALAIN 08:48:48:000 E 239 68.20 FLOREFFE, BELGIQUE
627 1163 VAN HIJFTE LIEVEN 08:48:50:000 D 197 114.40 ASSENDE, BELGIQUE
628 524 POPPE KRISTOF 08:48:58:000 D 198 113.30 SINT-NIKLAAS, BELGIQUE
629 1021 FEENSTRA DIRK 08:48:58:000 D 199 112.20 DELFT, Pays-Bas
630 1528 VANDENBERGHE DAVID 08:49:15:000 D 200 111.10 WEVELGEM, BELGIQUE
631 1537 VAN MEIJEL COR 08:49:18:000 E 240 67.10 BERLIEUM, Pays-Bas
632 1370 DE HAAN FONS 08:49:24:000 E 241 66.00 MORTSEL, BELGIQUE
633 314 MICHEL FRANK 08:49:39:000 E 242 64.90 HALBERSTADT, Allemagne
634 1081 VAN ENGELEN GERALD 08:49:56:000 E 243 63.80 BAVEL, Pays-bas
635 1624 MERSTORF DENIS 08:49:56:000 E 244 62.70 PETITE ROSSELLE, FRANCE
636 1213 NAUMER BERNHARD 08:50:20:000 E 245 61.60 LAMBRECHT, ALLEMAGNE
637 1455 BASTIEN FREDERIQUE 08:50:30:000 B 1 330.00 MORBIER, FRANCE
638 1344 LIGER DIDIER 08:50:35:000 E 246 60.50 MAILLY CHAMPAGNE, FRANCE
639 1026 DOURTE PATRICK 08:50:37:000 E 247 59.40 HEVER, BELGIQUE
640 1000 MARESTAN DANIEL 08:50:48:000 F 87 235.40 ST LYS, FRANCE
641 845 DE KORT WIM 08:50:57:000 E 248 58.30 GEEL, BELGIQUE
642 939 VAN DE KLUNDERT JACK 08:51:18:000 F 88 234.30 ZEVENBERGEN, Pays-Bas
643 1243 HINDERYRX JURGEN 08:51:23:000 D 201 110.00 VICHTE, BELGIQUE
644 1603 VAN GORKUM EMIL 08:51:37:000 D 202 108.90 AMSTELVEEN, Pays-Bas
645 422 JONGELLING JOS 08:51:47:000 C 80 243.10 WESTZAAN, Pays-Bas
646 648 MANS MICHAEL 08:51:49:000 D 203 107.80 MERKSEM, BELGIQUE
647 732 DE VUYST GUIDO 08:51:51:000 D 204 106.70 GERAARDSBERGEN, BELGIQUE
648 456 AERTS RAOUL 08:51:52:000 D 205 105.60 BREE, BELGIQUE
649 1180 AERTSEN EKKO 08:51:57:000 D 206 104.50 TIEL, Pays-Bas
650 1517 CENTLIVRE FRANCK 08:52:06:000 C 81 242.00 GUEWENHEIM, France
651 902 KEIJER ELTJO 08:52:13:000 D 207 103.40 AMSTERDAM, Pays-Bas
652 1822 LEHOUX ADELE 08:52:41:000 C 82 240.90 NANCY, FRANCE
653 921 KOEDOOD PETER 08:52:55:000 E 249 57.20 MAASSLUIS, Pays-Bas
654 874 LAURIER JOEL 08:53:09:000 E 250 56.10 RONSE, BELGIQUE
655 1605 CORNEZ PHILIPPE 08:53:13:000 E 251 55.00 LA LOUVIERE, BELGIQUE
656 450 BEYENS JEROEN 08:54:01:000 C 83 239.80 WESTOUTER, BELGIQUE
657 1713 VOORTMAN MARCO 08:54:04:000 D 208 102.30 AMERSFOORT, Pays-Bas
658 1501 MALLOTTEAUX LUCIEN-JEAN 08:54:19:000 G1 14 315.70 FALISOLLE, BELGIQUE
659 1258 THYS FABIAN 08:54:22:000 D 209 101.20 AMAY, BELGIQUE
660 627 JACOBS FRANK 08:54:33:000 E 252 53.90 ZELE, BELGIQUE
661 460 DONZE ANDRE 08:54:38:000 F 89 233.20 BUIS LES BARONNIES, FRANCE
662 458 BADIQUE PATRICK 08:54:39:000 F 90 232.10 ST MARCELLIN, FRANCE
663 457 DUQUENNE BRUNO 08:54:40:000 D 210 100.10 MOLLANS SUR OUVEZE, FRANCE
664 483 VAN DER HAM HERMAN 08:54:49:000 E 253 52.80 ZANDVOURT, Pays-Bas
665 876 OTTOLANDER SANDER 08:54:51:000 E 254 51.70 HAARLEM, Pays-Bas
666 834 MERMANS EDWARD 08:54:52:000 G1 15 314.60 Mol, Belgique
667 358 BERENDSEN ERIC 08:54:56:000 E 255 50.60 OSS, Pays-Bas
668 746 DUBEL JEROEN 08:55:29:000 D 211 99.00 HILVERSUM, Pays-Bas
669 532 SELS FRIEDRICH 08:55:30:000 D 212 97.90 VOSSELAAR, BELGIQUE
670 1367 OSTER FRANCK 08:55:37:000 D 213 96.80 MITTELBERGHEIM, FRANCE
671 828 VAN GRIEKEN JEAN 08:55:39:000 F 91 231.00 MOL, BELGIQUE
672 608 CASTIEN NIELS 08:55:49:000 D 214 95.70 WAALRE, Pays-Bas
673 1764 HEYMEN MARC 08:55:51:000 E 256 49.50 HAMONT, BELGIQUE
674 873 LOPRETE MICHELE 08:55:52:000 E 257 48.40 RONSE, BELGIQUE
675 1080 SUY HILCO 08:55:53:000 C 84 238.70 HULST, Pays-Bas
676 754 DIMITRIJEVIC ZORAN 08:56:33:000 D 215 94.60 BIEVRES, FRANCE
677 706 CORNELIS DANNY 08:56:41:000 D 216 93.50 OLSENE, BELGIQUE
678 884 KROGH HENRIK 08:56:44:000 F 92 229.90 ODENSE M, DANEMARK
679 382 VAN WEVERENBERGH JORIS 08:57:05:000 E 258 47.30 KORBEEK-LO, BELGIQUE
680 1446 CONRAUX EMMANUEL 08:57:08:000 E 259 46.20 COLMAR, FRANCE
681 1248 HUYBRECHTS ERIK 08:57:18:000 F 93 228.80 BORGERHOUT, BELGIQUE
682 1532 HERMANS EDDY 08:57:44:000 E 260 45.10 , BELGIQUE
683 525 PERMENTIER LUC 08:58:03:000 E 261 44.00 ZELE, BELGIQUE
684 753 KORSE PIET 08:58:08:000 E 262 42.90 HOORN, Pays-Bas
685 566 NIELSEN FRANK 08:58:15:000 E 263 41.80 VEJLE, DANEMARK
686 1642 MARDINE PATRICK 08:58:16:000 F 94 227.70 NIEDERBRONN LES BAINS, FRANCE
687 922 KOOL DICK 08:58:24:000 F 95 226.60 MAASSLUIS, Pays-Bas
688 1217 SCHAUTTEET FRANCIS 08:58:25:000 F 96 225.50 ARVILLE, BELGIQUE
689 869 VAN WELDEN FRANK 08:58:28:000 E 264 40.70 MAARKDAL, BELGIQUE
690 787 CAUCHOIS SERGE 08:58:48:000 G1 16 313.50 GARGES LES GONESSE, FRANCE
691 962 VERBOORD  JAN 08:59:04:000 E 265 39.60 Berghem , Pays-Bas
693 794 VERVAET KRIS 09:00:00:000 D 217 92.40 MENDONK, BELGIQUE
694 738 SLINGERLAND RICHARD 09:00:04:000 D 218 91.30 GOUDA, Pays-Bas
695 1765 JANSEN TOM 09:00:09:000 D 219 90.20 LOMMEL, BELGIQUE
696 508 NEUMANN ALEXANDER 09:00:14:000 E 266 38.50 DUESSELDORF, ALLEMAGNE
697 1641 MANIQUET PIERRE-YVES 09:00:25:000 D 220 89.10 Assesse, Belgique
698 1290 RAT LUC 09:00:39:000 F 97 224.40 ST MARTIN DU TERTRE, FRANCE
699 370 MASSET FRANCIS 09:00:44:000 F 98 223.30 FERE CHAMPENOISE, FRANCE
700 574 STAS JOHAN 09:00:59:000 E 267 37.40 SINT-TRUIDEN, BELGIQUE
701 407 NULENS KOEN 09:01:13:000 E 268 36.30 BERINGEN, BELGIQUE
702 879 DEPOPPE DIRK 09:01:16:000 E 269 35.20 RONSE, BELGIQUE
703 641 GORDON RICHARD 09:01:18:000 E 270 34.10 SURREY, Royaume-Uni
704 1094 FASTRE TIM 09:01:21:000 D 221 88.00 WERVIK, BELGIQUE
705 1552 VAN DEN HOVEN CHRIS 09:01:29:000 E 271 33.00 ULVENHOUT, Pays-Bas
706 1208 GUILLE CHRISTOPHE 09:01:31:000 F 99 222.20 Itegem, Belgique
707 184 CREUZENET SERGE 09:01:44:000 E 272 31.90 SERMESSE, FRANCE
708 749 YSKES MICHEL 09:01:51:000 D 222 86.90 DELFGOUW, Pays-Bas
709 589 DEBURGHGRAEVE BJORN 09:02:11:000 D 223 85.80 HOOGLEDE, BELGIQUE
710 1296 VAN GILS TOM 09:02:22:000 D 224 84.70 SCHILDE, BELGIQUE
711 1303 SPRANGHERS WERNER 09:02:33:000 F 100 221.10 EDEGEM, BELGIQUE
712 424 LIBBRECHT JOHAN 09:02:38:000 E 273 30.80 LEDE, BELGIQUE
713 331 VERBRAEKEN LUC 09:02:46:000 E 274 29.70 ASPER, BELGIQUE
714 1295 VAN STAPPEN PATRICK 09:02:47:000 D 225 83.60 SCHOTEN, BELGIQUE
715 1690 TOULET FABIEN 09:03:03:000 R 1 330.00 WALBACH, FRANCE
716 1073 REDING ROLAND 09:03:24:000 F 101 220.00 CANACH, LUXEMBOURG
717 1629 HANSSEN JESPER 09:03:32:000 C 85 237.60 NIJMEGEN, Pays-Bas
718 1087 VERHOEVEN WIM 09:03:37:000 E 275 28.60 ERPE-MERE, BELGIQUE
719 1871 SNOECK GEERT 09:03:38:000 E 276 27.50 AALTER, BELGIQUE
720 1557 VAN DOORSSELAER KRISTOF 09:03:50:000 D 226 82.50 LOCHRISTI, BELGIQUE
721 47 MARQUIS JEAN 09:04:01:000 G1 17 312.40 AIX LES BAINS, FRANCE
722 1499 BOLTERYS JEAN MARIE 09:04:50:000 F 102 218.90 FARCIENNES, Belgique
723 1601 DE BRAAL PETER 09:04:56:000 E 277 26.40 OUDERKERK AD AMSTEL, Pays-Bas
724 849 KAMPHUIS HARRIE 09:04:58:000 E 278 25.30 GRAMSBERGEN, Pays-Bas
725 1348 VAN DROOGE DANIEL 09:05:00:000 D 227 81.40 VOORBURG, Pays-Bas
726 1443 CLOET LAURENT 09:05:12:000 D 228 80.30 FOUSSEMAGNE, FRANCE
727 1613 GOUWY DARIO 09:05:31:000 E 279 24.20 WESTVLETEREN, BELGIQUE
728 1530 ZWARTS DICK 09:05:34:000 D 229 79.20 HOOGLAND, Pays-Bas
729 806 WALRAVENS STEFAAN 09:05:40:000 C 86 236.50 SINT PIETERS LEEUW, BELGIQUE
730 319 DELGRANGE ALAIN 09:05:42:000 F 103 217.80 DENAIN, FRANCE
731 1345 VANCUSTEM PHILIPPE 09:05:52:000 D 230 78.10 BUIZINGEN, BELGIQUE
732 1065 RIGONI JEAN 09:05:55:000 F 104 216.70 HECKEN, FRANCE
733 1183 EGERING BO 09:06:01:000 F 105 215.60 GRÃ¥STEN, Danemark
734 588 DE NEVE ERIC 09:06:02:000 E 280 23.10 NEDERHASSELT, BELGIQUE
735 1082 SUY MARIO 09:06:03:000 D 231 77.00 EINDHOVEN, Pays-Bas
736 513 DECLERCQ ROBIN 09:06:07:000 D 232 75.90 MEERDONK, BELGIQUE
737 1866 DAUSMANN GUNTER 09:06:10:000 E 281 22.00 , ALLEMAGNE
738 972 VERHAEGEN MARK 09:06:31:000 D 233 74.80 BAEXEM, Pays-Bas
739 745 VAN HALTEREN MICHIEL 09:06:59:000 E 282 20.90 RAVENSWAAIJ, Pays-Bas
740 1128 LUIKENS GUIDO 09:07:38:000 E 283 19.80 OOSTERHOUT, Pays-Bas
741 1570 VAN DIEVEL JAN 09:07:44:000 F 106 214.50 SCHOTEN, BELGIQUE
742 1553 VINCENTEN CHRIST 09:07:53:000 F 107 213.40 BAVEL, Pays-bas
743 1675 BERTEN JEAN LUC 09:07:55:000 G1 18 311.30 MEISE, BELGIQUE
744 327 BOUZEREAU THIERRY 09:07:59:000 E 284 18.70 MONTAGNY-LES-BEAUNE, FRANCE
745 1399 CAUCHY PATRICK 09:08:03:000 F 108 212.30 CHILLY MAZARIN, FRANCE
746 829 VAN DOOREN EDDY 09:08:08:000 D 234 73.70 ZOERSEL, BELGIQUE
747 1526 VAN MEERLO OANE 09:08:13:000 F 109 211.20 FEANWALDEN, Pays-Bas
748 1614 GOUDESEUNE HEIN 09:08:32:000 E 285 17.60 WATOU, BELGIQUE
749 667 SALMON JANET 09:08:42:000 AB 4 326.70 DUDENHOFEN, Allemagne
750 586 VAN DEN DRIESSCHE NOEL 09:09:00:000 F 110 210.10 NINOVE, BELGIQUE
751 1407 LISBY MORTEN 09:09:12:000 E 286 16.50 ESPERGAERDE, DANEMARK
752 531 BOLLANSE NANCY 09:09:20:000 AB 5 325.60 VOSSELAAR, BELGIQUE
753 757 BAIJS EDUARD 09:09:45:000 D 235 72.60 AMSTERDAM, Pays-Bas
754 969 BLOM FONS 09:10:18:000 E 287 15.40 OOSTERHOUT, Pays-Bas
755 24 GUILLON GERARD 09:10:50:000 G1 19 310.20 CANNES LA BOCCA, FRANCE
756 1265 PEDERSEN LEON 09:10:57:000 E 288 14.30 LUNDERSKOV, DANEMARK
757 1536 LINDNER UWE JENS 09:11:01:000 E 289 13.20 BAD MUNSTEREIFEL, ALLEMAGNE
758 947 VAN OS GERRIT 09:11:25:000 E 290 12.10 KAATSHEUVEL, Pays-Bas
759 1432 SAELEMAKERS JAN 09:11:44:000 E 291 11.00 KONTICH, BELGIQUE
760 1449 LAMBION HUGUES 09:11:44:000 E 292 11.00 CHÒNE, BELGIQUE
761 817 WAELKENS FILIP 09:12:05:000 E 293 11.00 LEMBEEK, BELGIQUE
762 725 MURGUET CHRISTIAN 09:12:08:000 E 294 11.00 COGNAC, FRANCE
763 1635 BRON ROGIER 09:12:08:000 D 236 71.50 AMSTERDAM, Pays-Bas
764 1049 KREGTING JACK 09:12:42:000 E 295 11.00 BEMMEL, Pays-Bas
765 465 VINCENT OLIVIER 09:12:44:000 E 296 11.00 AMAGE, FRANCE
766 1305 BERNARD PHILIPPE 09:13:23:000 E 297 11.00 BOUXIERES AUX BOIS, FRANCE
767 837 KEYSERS NICO 09:13:54:000 D 237 70.40 MALLE, BELGIQUE
768 1340 VION MICHAEL 09:13:56:000 C 87 235.40 GANSHOREN, BELGIQUE
769 988 VERMEULIN GERARD 09:13:57:000 G1 20 309.10 LINAS, FRANCE
770 367 ROMBEEK NANNO 09:14:06:000 E 298 11.00 OOSTZAAN, Pays-Bas
771 1693 VAN DER KOLK THIJS 09:14:06:000 E 299 11.00 OOSTZAAN, Pays-Bas
772 610 CARDON JEAN PAUL 09:14:16:000 D 238 69.30 MAASTRICHT, Pays-Bas
773 1457 JOST BERNARD 09:14:20:000 E 300 11.00 STRASBOURG, FRANCE
774 1064 BISSCHEROUX RICHARD 09:14:25:000 E 301 11.00 SCHIMMERT, Pays-Bas
775 1067 HEUTS MARC 09:14:26:000 E 302 11.00 SCHIMMERT, Pays-Bas
776 1480 GAUTHIER MICHEL 09:14:32:000 G1 21 308.00 MANDEURE, FRANCE
777 733 ROOSENS PIETER 09:14:34:000 D 239 68.20 ZANDBERGEN, BELGIQUE
778 255 SCHILDER REINOUD 09:14:36:000 D 240 67.10 AMSTERDAM, Pays-bas
779 1636 AHRENS RUDY 09:14:37:000 F 111 209.00 NIJMEGEN, Pays-Bas
780 1350 WILMAN FOLKERT 09:15:02:000 D 241 66.00 BRUXELLES, BELGIQUE
781 1030 SIJNSTRA GERLOF 09:15:47:000 E 303 11.00 VLISSINGEN, Pays-Bas
782 1458 SAUTER SVEN 09:16:06:000 E 304 11.00 FRANKFURT, ALLEMAGNE
783 1373 WICKI JACQUES 09:16:24:000 E 305 11.00 PORRENTRUY, Suisse
784 1453 DE MOERLOOSE PAUL 09:16:25:000 E 306 11.00 COURGENAY, Suisse
785 244 WOLFS LOUIS 09:16:35:000 F 112 207.90 HERDEN, BELGIQUE
786 686 HANS VAN SOLINGE 09:16:41:000 E 307 11.00 SCHOONHOVEN, Pays-Bas
787 455 MONTEN DIDIER 09:17:02:000 D 242 64.90 OPGLABBEEK, BELGIQUE
788 711 VAN DAMME JELLE 09:17:05:000 C 88 234.30 MOERBEKE-WAAS, BELGIQUE
789 611 DE CONINCK SVEN 09:17:25:000 C 89 233.20 ZELE, BELGIQUE
790 565 SCHEIDEGGER URS 09:17:48:000 E 308 11.00 RIEDHOLZ, SUISSE
791 356 NASTASI PHILIPPE 09:18:03:000 E 309 11.00 CHATOU, FRANCE
792 1317 WISSEMA ERIK 09:18:06:000 D 243 63.80 RIJSWIJK, Pays-Bas
793 1382 LUNEL MATTHIEU 09:18:06:000 D 244 62.70 RIEUX EN CAMBRESIS, FRANCE
794 484 SEBASTIANI ANTONIO 09:18:13:000 E 310 11.00 VERVIERS, BELGIQUE
795 1738 NOEL MEHDI 09:18:18:000 D 245 61.60 ROCHEFORT, BELGIQUE
796 1474 LANGEVELD KEES 09:18:48:000 F 113 206.80 HAARLEM, Pays-Bas
797 1192 MERTENS DIRK 09:19:01:000 D 246 60.50 BRASSCHAAT, BELGIQUE
798 881 BES RINY 09:19:28:000 E 311 11.00 OSS, Pays-Bas
799 953 MOONS MARCO 09:19:31:000 E 312 11.00 OSS, Pays-bas
800 282 BRANDERS HARRY 09:19:34:000 E 313 11.00 SCHERPENHEUVEL, BELGIQUE
801 1691 KIK DICK 09:19:40:000 F 114 205.70 KRABBENDIJKE, Pays-Bas
802 1762 MOLS RAF 09:19:49:000 E 314 11.00 HALLAAR, BELGIQUE
803 620 VAN DOORSSELAERE PAUL 09:21:06:000 F 115 204.60 ZELE, BELGIQUE
804 1801 BOSMAN PASCAL 09:21:06:000 D 247 59.40 BEVEREN WAAS, BELGIQUE
805 1276 FLION ERIK 09:21:08:000 E 315 11.00 ZEDELGEM, BELGIQUE
806 637 MALJAARS MARINUS 09:21:28:000 E 316 11.00 KRAGGENBURG, Pays-Bas
807 1704 OHL LIONEL 09:21:38:000 D 248 58.30 DRUSENHEIM, France
808 1092 DELVAEL PHILIPPE 09:21:53:000 E 317 11.00 LEDEGEM, BELGIQUE
809 1442 DELLINGER JEAN CLAUDE 09:21:54:000 F 116 203.50 SCHORBACH, FRANCE
810 305 VAN OPSTAL INEKE 09:22:41:000 B 2 328.90 PRINSENBEEK, Pays-bas
811 515 MEIRESONNE TOM 09:22:53:000 D 249 57.20 WAARSCHOOT, BELGIQUE
812 1218 VAN NISTELROOY CARLO 09:22:55:000 E 318 11.00 VENLO, Pays-bas
813 342 DERKS RODERICK 09:22:56:000 D 250 56.10 Den Bosch, Pays-Bas
814 864 DONDERS PATRICK 09:23:04:000 E 319 11.00 NEDERHORST DEN BERG, Pays-Bas
815 1412 JANSSENS BART 09:23:17:000 E 320 11.00 MELSELE, BELGIQUE
816 1783 PERNEY BERNARD 09:23:30:000 F 117 202.40 ST VALBERT, FRANCE
817 368 PILARD GAEL 09:23:43:000 D 251 55.00 KUSTERDINGEN, ALLEMAGNE
818 1390 BEILL PIERRE 09:23:48:000 F 118 201.30 ASCHBACH, FRANCE
819 1346 SCHULTEN GEORGE 09:23:53:000 E 321 11.00 VALKENSWAARD, Pays-bas
820 1222 D HEER MIET 09:23:59:000 AB 6 324.50 BERLARE, BELGIQUE
821 709 VAN DAMME HILAIRE 09:24:09:000 F 119 200.20 MOERBEKE-WAAS, BELGIQUE
822 1341 JADIN VINCENT 09:24:09:000 D 252 53.90 LEMBEEK, BELGIQUE
823 585 VAN DER BEKEN MARC 09:24:16:000 E 322 11.00 LENNIK, BELGIQUE
824 792 VERMEER TEUN 09:24:37:000 C 90 232.10 EDE, Pays-Bas
825 1257 BURGER WOUTER 09:24:49:000 C 91 231.00 DEN HAAG, Pays-Bas
826 1555 MONGENEELEN ANTONIUS 09:25:26:000 E 323 11.00 ETTENLEUR, Pays-Bas
827 846 BURGELMAN TOM 09:25:43:000 D 253 52.80 BEVEREN WAAS, BELGIQUE
828 1393 CAPPON JOACHIM 09:25:53:000 C 92 229.90 ZEDELGEM, BELGIQUE
829 520 VERKESTE JURGEN 09:26:09:000 D 254 51.70 WAARSCHOOT, BELGIQUE
830 1391 MASSOTTE FRANCIS 09:26:37:000 D 255 50.60 BOUXWILLER, FRANCE
831 1098 VANSUYT FABIEN 09:26:41:000 E 324 11.00 WERVIK, BELGIQUE
832 1438 MAAS CAMIEL 09:26:42:000 C 93 228.80 ROTTERDAM, Pays-Bas
833 883 VAN DEN BROECK STEF 09:27:08:000 E 325 11.00 ELLEZELLES, BELGIQUE
834 194 DEMARCHE LEOPOLD 09:27:38:000 G2 1 330.00 BAILLONVILLE, BELGIQUE
835 1439 STARCK JEAN LUC 09:27:45:000 F 120 199.10 ETZLING, FRANCE
836 1617 TIJINK HENK-JAN 09:27:54:000 D 256 49.50 nijverdal, Pays-Bas
837 839 HOFMANS JACK 09:28:16:000 G1 22 306.90 BRASSCHAAT, BELGIQUE
838 1572 PAUWELS LUC 09:28:26:000 E 326 11.00 HULSHOUT, BELGIQUE
839 1749 LAMERA ROBERTO 09:28:39:000 E 327 11.00 ROUX, BELGIQUE
840 1023 BUEDTS MANU 09:28:40:000 E 328 11.00 ROTSELAAR, BELGIQUE
841 485 MAILFAIT MICHEL 09:29:16:000 F 121 198.00 LINCHAMPS, FRANCE
842 744 VERBEKE SVEN 09:29:29:000 D 257 48.40 VIlvoorde, Belgique
843 301 STRUIKSMA JAN 09:29:49:000 F 122 196.90 ZAANDAM, Pays-Bas
844 652 STREEKSTRA ROB 09:29:50:000 E 329 11.00 ZOETERMEER, Pays-Bas
845 1778 KLEIN GABRIEL 09:29:53:000 E 330 11.00 ST LOUIS LES BITCHE, FRANCE
846 402 NIELSEN KJELD 09:29:57:000 F 123 195.80 Vejle, Danemark
847 568 SPADA GIORGIO 09:30:29:000 D 258 47.30 ZUTENDAAL, BELGIQUE
848 783 MENEAULT JEAN MICHEL 09:30:30:000 F 124 194.70 STE GENEVIEVE, FRANCE
849 1361 CALLEY GREGOIRE 09:30:32:000 D 259 46.20 RUMILLY, FRANCE
850 647 MICHIELSEN PETER 09:30:36:000 E 331 11.00 GAVERE, BELGIQUE
851 1470 GUERRERO JOSE GABRIEL 09:30:50:000 F 125 193.60 BRUXELLES, BELGIQUE
852 1279 MAILLARD DANIEL 09:30:51:000 F 126 192.50 BARSURAUBE, FRANCE
853 1616 VAN BAKEL BAS 09:30:53:000 E 332 11.00 ELST GLD, Pays-Bas
854 412 NICOLIER GABRIEL 09:30:55:000 F 127 191.40 EVETTE SALBERT, FRANCE
855 579 ZEGERS JAN 09:31:20:000 G1 23 305.80 TERNEUZEN, Pays-Bas
856 995 VAN HAUTE LUC 09:31:25:000 F 128 190.30 MERCHTEM, BELGIQUE
857 1060 BEAUFOUR FABIEN 09:31:26:000 E 333 11.00 ST VALERY EN CAUX, FRANCE
858 1249 PERNEL JEAN PIERRE 09:31:46:000 E 334 11.00 Mirecourt, France
859 771 AVONTS ERIK 09:32:21:000 E 335 11.00 BOECHOUT, BELGIQUE
860 464 NIEUWENHUIZE MARTIN 09:32:31:000 E 336 11.00 OSSENDRECHT, Pays-Bas
861 1498 GOOSSENS SVEN 09:32:50:000 C 94 227.70 KRUIBEKE, BELGIQUE
862 791 DEKKER SJAAK 09:32:54:000 F 129 189.20 S HEER AVENDSHERKE, Pays-Bas
863 1426 PLAGGE JAN 09:33:00:000 E 337 11.00 HARDENBERG, Pays-Bas
864 665 KRIJGER COR 09:33:34:000 J 6 324.50 MARKNESSE, FRANCE
865 1267 JOHANSEN JORGEN 09:33:50:000 F 130 188.10 HVIDOVRE, DANEMARK
866 1424 YPENBURG GUIDO 09:33:51:000 E 338 11.00 RIJSWIJK, Pays-Bas
867 294 LOUYET MARCEL 09:34:13:000 G1 24 304.70 CHATELINEAU, BELGIQUE
868 1756 MARTIN DOMINIQUE 09:34:28:000 F 131 187.00 MEISENTHAL, FRANCE
869 643 PONTUS PHILIPPE 09:34:30:000 E 339 11.00 BAARLE-HERTOG, BELGIQUE
870 1131 VERWEY BERRIE 09:36:02:000 E 340 11.00 S HERTOGENBOSCH, Pays-Bas
871 941 SCHAPENDONK PETER 09:36:37:000 E 341 11.00 KAATSHEUVEL, Pays-Bas
872 1610 SCHOONACKERS RUBEN 09:36:52:000 C 95 226.60 DEINZE, BELGIQUE
873 1197 MATHIEUX OLIVIER 09:37:06:000 E 342 11.00 POUILLEY LES VIGNES, FRANCE
874 727 FOURTON EMMANUEL 09:38:04:000 D 260 45.10 SAO PAULO, BRESIL
875 1459 SEYS STEFAN 09:38:19:000 D 261 44.00 MENEN, BELGIQUE
876 1268 VAN BELLEGHEM RIK 09:39:36:000 E 343 11.00 BRUGGE, BELGIQUE
877 1644 DEN HAAN CORNELIS 09:39:39:000 E 344 11.00 LEIDEN, Pays-Bas
878 1718 SEYNAVE JEAN FRANCOIS 09:40:09:000 E 345 11.00 NEUILLY PLAISANCE, FRANCE
879 1298 Braedstrup Holm Dan 09:40:10:000 D 262 42.90 Gentofte, DANEMARK
880 813 VAN WAERT FRANK 09:40:19:000 F 132 185.90 WESBROEK, Pays-Bas
881 737 VAN GORP BOB 09:40:22:000 E 346 11.00 LICHTAART, BELGIQUE
882 1172 NEEF ARJAN 09:40:26:000 C 96 225.50 ZWIJNDRECHT, Pays-bas
883 699 KONGSTED JENS 09:40:33:000 E 347 11.00 BREDSTEN, DANEMARK
884 1699 VAN DER WOERD HENDRIK 09:41:45:000 D 263 41.80 AMSTELVEEN, Pays-Bas
885 1698 RIJNEVELD OSCAR 09:41:46:000 E 348 11.00 AMSTERDAM, Pays-Bas
886 1001 VANNSON ERIC 09:42:01:000 D 264 40.70 DOMEVRE EN HAYE, France
887 1360 PALERMO GIOVANNI 09:42:07:000 E 349 11.00 NEUILLY LES DIJON, FRANCE
888 944 POELEN ERIK 09:42:38:000 E 350 11.00 KAATSHEUVEL, Pays-Bas
889 1780 NOIROT PASCAL 09:42:40:000 E 351 11.00 CHOISEY, FRANCE
890 892 MOELLER JESPER 09:42:54:000 D 265 39.60 KERTEMINDE, DANEMARK
891 772 KASIGKEIT LARS 09:43:03:000 E 352 11.00 WILLICH, ALLEMAGNE
892 587 DE NEVE ERWIN 09:43:09:000 F 133 184.80 NINOVE, BELGIQUE
893 1619 MAILLARD MICHAEL 09:43:22:000 D 266 38.50 Courgenay, SUISSE
894 1170 DEWEZ THIERRY 09:43:28:000 D 267 37.40 VILLEMAUR SUR VANNE, FRANCE
895 894 LARS KAARILL 09:43:34:000 D 268 36.30 KERTEMINDE, DANEMARK
896 1625 CHAVANNE PIERRE ALAIN 09:43:51:000 D 269 35.20 FONTENAIS, SUISSE
897 1063 WOESTENBORGHS RUDI 09:43:56:000 F 134 183.70 LICHTAART, BELGIQUE
898 622 VAN DRIESSCHE HERMAN 09:44:02:000 F 135 182.60 ZELE, BELGIQUE
899 1300 PEERDEN MARCEL 09:44:11:000 F 136 181.50 VEENWOUDEN, Pays-Bas
900 700 LANGEREIS NICO 09:44:24:000 F 137 180.40 Lettele, Pays-Bas
901 1206 CIESIELSKI MARTIN 09:44:52:000 D 270 34.10 STRASBOURG, FRANCE
902 1489 HERNANDEZ FRANCIS 09:44:53:000 G1 25 303.60 MULHOUSE, France
903 1178 LEGER LUDOVIC 09:45:02:000 C 97 224.40 MULHOUSE, France
904 1058 LAGEMAAT JACOB 09:45:16:000 F 138 179.30 CORRAVILLIERS, FRANCE
905 780 LAURENT JEAN LUC 09:45:21:000 E 353 11.00 SUNDHOUSE, FRANCE
906 1817 SCHNEIDER PATRICK 09:45:22:000 E 354 11.00 SCHIRRHEIN, FRANCE
907 1323 VOGEL MARIEN 09:45:29:000 C 98 223.30 HENDRIK IDO AMBACHT, Pays-Bas
908 1514 Gouwens Jan 09:45:34:000 E 355 11.00 Ammerstol, Pays-Bas
909 1433 PYLISER SAM 09:45:39:000 J 7 323.40 BOOM, BELGIQUE
910 1467 VALKS MARTI 09:45:39:000 B 3 327.80 Hilversum, Pays-Bas
911 1425 VAN LIPZIG PIETER 09:45:48:000 E 356 11.00 MARKNESSE, Pays-Bas
912 1669 MGC GIELEN L 09:46:02:000 J 8 322.30 WAALRE, Pays-Bas
913 946 VAN LAARHOVEN BART 09:46:51:000 E 357 11.00 KAATSHEUVEL, Pays-Bas
914 1563 POULIART GINO 09:46:58:000 E 358 11.00 BONHEIDEN, BELGIQUE
915 1568 VAN DIEVEL DANIEL 09:47:01:000 E 359 11.00 RUMST, BELGIQUE
916 633 SCHOOFS MONIEK 09:47:12:000 A 7 323.40 BREDA, Pays-Bas
917 1637 DIEMEN LEER 09:47:50:000 F 139 178.20 NIJMEGEN, Pays-Bas
918 601 HERTOGHE GILLES 09:48:31:000 D 271 33.00 ANVERS, BELGIQUE
919 1002 BIESEMANS KURT 09:48:31:000 D 272 31.90 WILLEBROEK, BELGIQUE
920 1535 BODE HEIKO 09:48:34:000 E 360 11.00 EUSKIRCHEN, ALLEMAGNE
921 1119 VAN STEEN MARCEL 09:48:51:000 E 361 11.00 WORMER, Pays-bas
922 1785 RENDA DOMINIQUE 09:49:06:000 G1 26 302.50 EGUISHEIM, FRANCE
923 325 DELPIERRE CHRISTIAN 09:49:32:000 F 140 177.10 BOUQUEHAULT, France
924 1100 RAFFEGEAU LAURENT 09:49:42:000 D 273 30.80 NOISY LE GRAND, FRANCE
925 1262 HOGH JAN 09:50:23:000 E 362 11.00 KOLDING, DANEMARK
926 1759 MORTELE BART 09:50:37:000 D 274 29.70 ICHTEGEM, BELGIQUE
927 776 RESPILIEUX HENRI 09:50:41:000 E 363 11.00 NINOVE, BELGIQUE
928 761 BIJVOET HANS 09:51:03:000 G1 27 301.40 VOERENDAAL, Pays-Bas
929 497 BROUWERS FREDERICS 09:51:06:000 F 141 176.00 RIJSWIJK ZH, Pays-Bas
930 1416 VLOEBERGHS FREDERIC 09:51:07:000 D 275 28.60 BERCHEM, BELGIQUE
931 760 JANSSEN JOS 09:51:08:000 F 142 174.90 KLIMMEN, Pays-Bas
932 308 TROUBLEYN OLIVIER 09:51:29:000 C 99 222.20 Overijse, Belgique
933 1195 RIEGEL SEBASTIAN 09:51:58:000 E 364 11.00 FRANKFURT, ALLEMAGNE
934 1692 FIOLET ETIENNE 09:52:00:000 E 365 11.00 ZAANDAM, Pays-Bas
935 1223 CORNELIS MARC 09:52:39:000 E 366 11.00 BERLARE, BELGIQUE
936 1647 SCHROMBGES RONALD 09:52:44:000 D 276 27.50 NIJMEGEN, Pays-Bas
937 1516 MEESEN AD 09:52:55:000 E 367 11.00 SUSTEVEN, Pays-Bas
938 1167 KINS JACQUES 09:53:02:000 F 143 173.80 WERVIK, BELGIQUE
939 1008 VAN HOORENBEECK KENNETH 09:53:16:000 D 277 26.40 EDEGEM, BELGIQUE
940 1384 BURI LUDOVIC 09:53:21:000 D 278 25.30 LA VILLEDIEU EN FONTENETTE, FRANCE
941 614 BAKX HANS 09:53:37:000 F 144 172.70 ROOSENDAAL, Pays-Bas
942 1429 BENDERS PETER 09:54:15:000 E 368 11.00 BUSSUM, Pays-Bas
943 1316 BAVEREL MARC 09:54:18:000 E 369 11.00 NEUILLY LES DIJON, FRANCE
944 916 TELLIER STEFAN 09:54:48:000 E 370 11.00 SCHOONHOVEN, Pays-Bas
945 1211 VANSTEENKISTE PASCAL 09:55:00:000 J 9 321.20 KUURNE, BELGIQUE
946 1056 DE WILDE ANDRE 09:55:44:000 F 145 171.60 HEKELGEM, BELGIQUE
947 666 JOOP VEDELAAR 09:55:46:000 E 371 11.00 EMMELOORD, Pays-Bas
948 1650 TE BOEKHORST WIL 09:56:27:000 F 146 170.50 VELDHOVEN, Pays-Bas
949 1434 VAN DIEST VINCENT 09:56:28:000 E 372 11.00 HOVE, BELGIQUE
950 1652 VERDONSCHOT KAREL 09:56:35:000 F 147 169.40 NIJMEGEN, Pays-Bas
951 1781 CHAUVILLE SERGE 09:57:07:000 F 148 168.30 DOLE, FRANCE
952 1724 SIEGEL RAYMOND 09:57:13:000 G1 28 300.30 HERRLISHEIM, FRANCE
953 960 TIEMISSEN JAAP 09:57:14:000 G1 29 299.20 BERGHEM, Pays-Bas
954 1757 BERTHELOT NICOLAS 09:57:28:000 C 100 221.10 CHATOU, FRANCE
955 1472 WENS PIET 09:58:03:000 E 373 11.00 ERTVELDE, BELGIQUE
956 1357 VAN ERP HANS 09:58:39:000 F 149 167.20 BREDA, Pays-Bas
957 1697 LECHAT LOUIS 09:59:53:000 E 374 11.00 TERVUREN, BELGIQUE
958 1735 LAMBRECHTS JAN 10:00:06:000 E 375 11.00 TIENEN, Belgique
959 1419 HOOGENDOORN JACO 10:00:12:000 E 376 11.00 BOSKOOP, Pays-Bas
960 1622 DOUWES MARIJE 10:00:23:000 AB 7 323.40 BARENDRECHT, Pays-Bas
961 1247 ROBERT JEAN CHRISTOPHE 10:00:55:000 D 279 24.20 MERREY SUR ARCE, FRANCE
962 1493 TIESNITSCH JOHAN 10:01:00:000 D 280 23.10 BEEK UBBERGEN, Pays-Bas
963 482 DOBLER DENIS 10:01:06:000 F 150 166.10 BONCOURT, SUISSE
964 441 RIBSTEIN GILLES 10:01:08:000 E 377 11.00 BELFORT, FRANCE
965 762 BEYLS KAREL 10:01:15:000 D 281 22.00 KUURNE, BELGIQUE
966 492 NUYTEMANS JOZEF 10:02:05:000 E 378 11.00 ESSEN, BELGIQUE
967 809 DANNAU BRUNO 10:02:56:000 E 379 11.00 HALLE, BELGIQUE
968 35 JENOT EMILE 10:04:23:000 G2 2 328.90 LE CANET, FRANCE
969 835 KUYT ANKO 10:04:34:000 E 380 11.00 ALMERE, Pays-Bas
970 826 GILLOT ALAIN 10:05:15:000 F 151 165.00 FRAHIER ET CHATEBIER, FRANCE
971 477 MARCK KLAUS 10:06:30:000 F 152 163.90 BROENDBY, DANEMARK
972 1486 LAMOTTE CHRISTIAN 10:06:48:000 F 153 162.80 BOUGE, BELGIQUE
973 1711 SWERON LOUIS 10:06:51:000 F 154 161.70 TERNAT, BELGIQUE
974 1228 COUVREUR STEFAAN 10:06:53:000 F 155 160.60 DIKKELVENNE, BELGIQUE
975 736 ADRIAENSEN MIL 10:06:55:000 G1 30 298.10 LICHTAART, BELGIQUE
976 1755 RERINERS MARTIN 10:08:02:000 E 381 11.00 HEIDELDERG, ALLEMAGNE
977 1588 VAN DER SMAN PETER 10:08:12:000 F 156 159.50 NAALDWIJK, Pays-Bas
978 1714 WEGEM JOS 10:08:24:000 F 157 158.40 HOOGLAND, Pays-Bas
979 1337 DE COSTER MICHEL 10:08:28:000 F 158 157.30 ZELLIK, BELGIQUE
980 1339 VION JEAN MARIE 10:08:28:000 E 382 11.00 GANSHOREN, BELGIQUE
981 542 VALERIUS DENNIS 10:08:32:000 D 282 20.90 ANTWERPEN, BELGIQUE
982 632 SLUYTER STEVEN 10:08:56:000 E 383 11.00 BRUMMEN, Pays-Bas
983 1604 CUBAT JEAN MICHEL 10:09:22:000 F 159 156.20 STREPY-BRACQUEGNIES, BELGIQUE
984 506 WILLEMS GEERT 10:09:40:000 E 384 11.00 WAARSCHOOT, BELGIQUE
985 254 ONRUST NICOLAAS 10:10:42:000 D 283 19.80 UTRECHT, Pays-Bas
986 994 MANDELLI LUC 10:10:42:000 E 385 11.00 BAR SUR AUBE, FRANCE
987 1477 BOURDENET JACQUES 10:11:06:000 F 160 155.10 ZIMMERBACH, FRANCE
988 724 CHABAUD ANDRE 10:11:21:000 G1 31 297.00 LA COURONNE, FRANCE
989 1671 CHAPELLE JEAN-LUC 10:11:22:000 F 161 154.00 VANDOEUVRE, FRANCE
990 467 SCHOUWENAARS SEBASTIAAN 10:11:54:000 E 386 11.00 ROOSENDAAL, Pays-Bas
991 1672 PEN STEPHANIE 10:11:55:000 AB 8 322.30 VANDOEUVRE, FRANCE
992 640 MAES DIRK 10:12:01:000 E 387 11.00 NIEUWKERKEN WAAS, BELGIQUE
993 1505 RONSIJN DIRK 10:12:16:000 E 388 11.00 VLIERZELE, BELGIQUE
994 1254 LAMMENS EDDY 10:12:25:000 E 389 11.00 ERPE-MERE, BELGIQUE
995 578 VAN HIEL JOHAN 10:12:32:000 E 390 11.00 SINT NIKLAAS, BELGIQUE
996 893 ROENHAVE JOHN 10:13:54:000 E 391 11.00 ODENSE M, DANEMARK
997 646 BIGAULT JEAN POL 10:13:57:000 G1 32 295.90 MONTMACQ, FRANCE
998 664 KOOY MARCEL 10:13:59:000 E 392 11.00 ZUTPHEN, Pays-Bas
999 1387 LAGAE DIDIER 10:14:03:000 E 393 11.00 GITS, BELGIQUE
1000 1507 SILLEKENS FRANCK 10:14:03:000 E 394 11.00 DEN BOSCH, Pays-Bas
1001 1674 PEN NICOLAS 10:14:28:000 D 284 18.70 VANDOEUVRE, FRANCE
1002 1076 GRIMAUD JEAN MARC 10:14:49:000 F 162 152.90 SAINT DIE, FRANCE
1003 1777 VERLINDE MARNIK 10:14:59:000 E 395 11.00 Rumbeke, Belgique
1004 656 VAN RANGELROOIJ KOOS 10:15:19:000 F 163 151.80 DEN HAAG, Pays-Bas
1005 1232 HAMM GERD 10:15:19:000 G1 33 294.80 ACHERN, ALLEMAGNE
1006 592 VAN PUYMBROECK ALEX 10:15:29:000 E 396 11.00 BEVEREN, Belgique
1007 788 SCHEIDEGGER GOTTHELF 10:15:33:000 G2 3 327.80 ATTISWIL, SUISSE
1008 1283 QUINT GERRIT 10:15:55:000 F 164 150.70 OCHTEN, Pays-Bas
1009 306 HARTMAN WILLEM 10:16:08:000 G1 34 293.70 Amersfoort, Pays-Bas
1010 701 HANSEN JRGEN 10:16:10:000 F 165 149.60 VEJLE, DANEMARK
1011 1320 GOMANNE BENOIT 10:16:51:000 C 101 220.00 EVRY GREGY SUR YERRES, FRANCE
1012 886 MADSEN ALLAN 10:16:53:000 D 285 17.60 ODENSE S, Danemark
1013 1385 DELARUE PETER 10:17:25:000 E 397 11.00 HOOGLEDE, BELGIQUE
1014 747 WOUTERS RONNY 10:17:34:000 E 398 11.00 HOFSTADE ZEMST, BELGIQUE
1015 421 HAGOORT ROEL 10:17:48:000 E 399 11.00 AMSTERDAM, Pays-Bas
1016 896 NABIGD MICHAEL 10:18:24:000 E 400 11.00 ODENSE NE, DANEMARK
1017 1118 METZ JOHN 10:18:33:000 E 401 11.00 ZAANDAM, Pays-Bas
1018 959 GREMMEN JOS 10:18:43:000 E 402 11.00 BERGHEM, Pays-Bas
1019 1271 SLABBINCK FILIP 10:19:11:000 E 403 11.00 ZEDELGEM, BELGIQUE
1020 1280 RICHARD PHILIPPE 10:19:32:000 F 166 148.50 LURE, FRANCE
1021 1571 VAN DIEVEL MARC 10:19:38:000 E 404 11.00 HEVER, BELGIQUE
1022 1270 DEVOOGHT JULIEN 10:20:04:000 F 167 147.40 ZEDELGEM, BELGIQUE
1023 1670 GENT JOS 10:20:23:000 G1 35 292.60 VELDHOVEN, Pays-Bas
1024 1708 AARTS MARC 10:20:37:000 E 405 11.00 GELEEN, Pays-Bas
1025 1539 FREUND FRANCIS 10:20:38:000 F 168 146.30 STRASBOURG, FRANCE
1026 838 JACOBS JOZEF 10:20:43:000 F 169 145.20 OUD TURNHOUT, BELGIQUE
1027 317 CLARYSSE EDDY 10:20:50:000 F 170 144.10 ZWEVEGEM, BELGIQUE
1028 778 PEREN BRUNO 10:21:16:000 E 406 11.00 HERENT, BELGIQUE
1029 1034 DUFOUR THIERRY 10:21:47:000 E 407 11.00 FREPILLON, FRANCE
1030 1405 LEBEGUE DAVID 10:21:50:000 D 286 16.50 CHALONS EN CHAMPAGNE, FRANCE
1031 1403 LEBEGUE GERARD 10:21:52:000 F 171 143.00 CHALONS EN CHAMPAGNE, FRANCE
1032 1039 HORVAIS ERIC 10:21:58:000 E 408 11.00 Frépillon, France
1033 683 ROLAND JEAN PIERRE 10:21:59:000 E 409 11.00 MAREUIL SUR OURCY, FRANCE
1034 1272 MAERTENS KOEN 10:22:11:000 E 410 11.00 SNELLEGEM, BELGIQUE
1035 1157 SOLSOE GUNNER 10:22:23:000 F 172 141.90 KERTEMINDE, DANEMARK
1036 1409 ROSIER JOKE 10:22:34:000 B 4 326.70 VRIES, Pays-bas
1037 1221 COLMAN KAREL 10:22:40:000 E 411 11.00 ZELE, BELGIQUE
1038 1036 PASTOR NICOLAS 10:22:47:000 D 287 15.40 ENGHIEN LES BAINS, FRANCE
1039 1600 COULONVAUX JEAN JACQUES 10:23:10:000 F 173 140.80 BRUXELLES, BELGIQUE
1040 1420 VAN DER BROEK LEX 10:24:30:000 E 412 11.00 BOSKOOP, Pays-Bas
1041 848 BISSCHOPS LUDO 10:25:09:000 F 174 139.70 BRECHT, BELGIQUE
1042 1352 TE KULVE ERIC 10:25:29:000 F 175 138.60 AUDERGHEM, BELGIQUE
1043 558 DIJCKMANS HANS 10:25:48:000 D 288 14.30 OUD TURNHOUT, BELGIQUE
1044 448 VAN NUIL JANITUS 10:26:07:000 G1 36 291.50 BEILEN, Pays-Bas
1045 449 DONDORFF WIM 10:26:07:000 F 176 137.50 BEILEN, Pays-Bas
1046 628 VERWOOLDE PETER 10:26:12:000 E 413 11.00 UGCHELEN, Pays-Bas
1047 1037 BACHELET SERGE 10:26:17:000 E 414 11.00 MERIEL, FRANCE
1048 1038 CAELS PHILIPPE 10:26:17:000 E 415 11.00 Frépillon, France
1049 842 TEUWEN JAN 10:26:18:000 C 102 218.90 GENT, BELGIQUE
1050 1196 KRAFT MATTHIAS 10:26:41:000 D 289 13.20 FRANKFURT, ALLEMAGNE
1051 598 NOORLANDER COR 10:26:44:000 D 290 12.10 NIEW LEKKERLAND, Pays-Bas
1052 1673 MARC JEAN 10:27:02:000 F 177 136.40 VANDOEUVRE, FRANCE
1053 517 VAN KERCKHOVE STEFAAN 10:27:16:000 E 416 11.00 LIERDE, BELGIQUE
1054 1550 SOMHORST JOHAN 10:27:19:000 E 417 11.00 HAAKSBERGEN, Pays-Bas
1055 1414 CHAMPAGNE DIETER 10:27:20:000 C 103 217.80 WAASMONT, Belgique
1056 958 BLOKS TONNY 10:28:12:000 F 178 135.30 BERGHEM, Pays-Bas
1057 684 STRAATHOF JOS 10:28:13:000 E 418 11.00 MARKNESSE, Pays-Bas
1058 1408 DUCREUX PATRICE 10:28:58:000 F 179 134.20 NEUILLY LES DIJON, FRANCE
1059 1677 COOSE BRAM 10:29:02:000 C 104 216.70 HAACHT, BELGIQUE
1060 551 VAN ZUMMEREN PATRICK 10:29:07:000 E 419 11.00 TURNHOUT, BELGIQUE
1061 767 GOVAERTS KURT 10:29:07:000 D 291 11.00 OUD TURNHOUT, BELGIQUE
1062 1751 BIESHHEUVEL CHRIS 10:29:25:000 D 292 11.00 Hooglanderveen, Pays-bas
1063 815 VAN HOOGEVEST LUUT 10:29:31:000 F 180 133.10 UTRECHT, Pays-Bas
1064 659 JANSE ADRIE 10:29:34:000 F 181 132.00 KRAGGENBURG, Pays-bas
1065 812 DEYLIUS MICHIEL 10:29:48:000 F 182 130.90 BUNNIK, Pays-Bas
1066 1219 VEHENT RIK 10:31:12:000 E 420 11.00 ZELE, BELGIQUE
1067 1041 COMTE PHILIPPE 10:31:13:000 E 421 11.00 Frépillon, France
1068 434 PEETERS HENRI 10:31:21:000 E 422 11.00 ZEVENBERGEN, Pays-Bas
1069 69 GARNODIER VERONIQUE 10:31:37:000 AB 9 321.20 CHAPONOST, France
1070 1739 VERHAEGEN ERIK 10:31:54:000 D 293 11.00 TREMELO, BELGIQUE
1071 354 RUTTEN RUUD THM 10:32:03:000 F 183 129.80 AMSTERDAM, Pays-Bas
1072 474 HARTOG JACOB 10:33:16:000 F 184 128.70 GARNERWOLDE, Pays-Bas
1073 1618 KUYTEN MARTIN 10:33:54:000 E 423 11.00 DEURNE, Pays-Bas
1074 1287 MALIEPAARD PATRICK 10:33:59:000 E 424 11.00 ETTEN LEUR, Pays-Bas
1075 1018 LAVIRON FRANCK 10:34:09:000 D 294 11.00 SAVIGNY SUR ORGE, FRANCE
1076 1662 VERCAMMEN BENNY 10:34:35:000 E 425 11.00 WAARLOOS, BELGIQUE
1077 1858 EHRSAM FERNAND 10:35:43:000 F 185 127.60 MUNICH, ALLEMAGNE
1078 918 ELSHOF PATRICK 10:36:09:000 D 295 11.00 SCHOONHOVEN, Pays-bas
1079 1676 HOLLIER J.LUC 10:36:43:000 F 186 126.50 MARSANGIN, FRANCE
1080 1510 DE GOUW GIELJAN 10:36:49:000 F 187 125.40 ROSMALEN, Pays-Bas
1081 1179 BLOCH ROLF 10:37:24:000 E 426 11.00 RIEDHOLZ, SUISSE
1082 1083 FERAUX BENJAMIN 10:37:41:000 D 296 11.00 THIONVILLE, FRANCE
1083 1035 ARMATI THIERRY 10:38:05:000 E 427 11.00 MERY SUR OISE, FRANCE
1084 811 GEUDENS GRIET 10:39:06:000 D 297 11.00 LICHTAART, Belgique
1085 607 VANHOOF BART 10:39:17:000 E 428 11.00 HEVERLEE, BELGIQUE
1086 889 DE SWAEF JO 10:39:18:000 E 429 11.00 LIEDEKERKE, BELGIQUE
1087 1796 BOEDTS DIETER 10:39:32:000 D 298 11.00 GENT, BELGIQUE
1088 599 BRAND ERWIN 10:39:40:000 D 299 11.00 DORDRECHT, Pays-Bas
1089 1207 DE NEVE STEVEN 10:40:24:000 E 430 11.00 HEFFEN, BELGIQUE
1090 1043 PIERRE ERIC 10:41:05:000 E 431 11.00 CHAPET, FRANCE
1091 372 GOEDE PETER 10:41:22:000 F 188 124.30 OOSTZAAN, Pays-Bas
1092 1033 COLETTE MICHEL 10:41:31:000 G1 37 290.40 ECARDENVILLE SUR EURE, FRANCE
1093 1042 GUILLAUME LAURENT 10:41:31:000 E 432 11.00 Frépillon, France
1094 966 DE WAAL MARLON 10:41:59:000 E 433 11.00 EWIJK, Pays-Bas
1095 562 BAUWENS RAPHAEL 10:42:03:000 E 434 11.00 GAND, BELGIQUE
1096 1437 SCHEERS SVEN 10:42:13:000 D 300 11.00 ELEWIJT, BELGIQUE
1097 1016 DE BOCK EDDY 10:42:53:000 E 435 11.00 MELSELE, BELGIQUE
1098 1640 DOLLE BERNARD 10:42:57:000 F 189 123.20 UTRECHT, Pays-Bas
1099 437 STEEN ANTONSEN 10:43:15:000 F 190 122.10 , DANEMARK
1100 1392 PONTIER DAPHNE 10:43:50:000 A 8 322.30 VOORBURG, Pays-Bas
1101 653 POSTHUMA SJOUKE 10:44:01:000 F 191 121.00 MARKNESSE, Pays-Bas
1102 332 D HONDT GUNTER 10:44:13:000 D 301 11.00 RONSE, BELGIQUE
1103 536 MOENTJENS FILIP 10:46:09:000 D 302 11.00 WAARSCHOOT, BELGIQUE
1104 488 BICKE GUNTHER 10:46:34:000 D 303 11.00 NINOVE, BELGIQUE
1105 1040 CALAIS FRANTZ 10:46:37:000 E 436 11.00 ST LEU LA FORET, FRANCE
1106 403 GABRIELSEN BENT 10:46:39:000 E 437 11.00 FREDERICIA, DANEMARK
1107 1250 NICOU CHRISTIAN 10:47:02:000 G1 38 289.30 HERBLAY, FRANCE
1108 1351 DELANGHE PIET 10:47:28:000 E 438 11.00 HAACHT, BELGIQUE
1109 1086 WICHERSON JOHAN 10:47:59:000 E 439 11.00 MARKNESSE, Pays-Bas
1110 341 FERIN BERNARD 10:49:21:000 F 192 119.90 BRAINE L ALLEUD, BELGIQUE
1111 1754 CONESE VINCENT 10:49:38:000 D 304 11.00 TALANGE, FRANCE
1112 1158 ANTOINE YVES 10:50:05:000 E 440 11.00 ODENSE S, DANEMARK
1113 655 ELSCHOT GERT 10:50:55:000 F 193 118.80 MAKNESSE, Pays-Bas
1114 734 BRUYLANDT JEAN LUC 10:51:23:000 E 441 11.00 WAARBEKE, BELGIQUE
1115 426 MONTENY DANY 10:51:26:000 E 442 11.00 MERELBEKE, BELGIQUE
1116 690 EUSER JACCO 10:52:07:000 C 105 215.60 HENDRIK IDO AMBACHT, Pays-Bas
1117 735 VAN WEYENBERG SVEN 10:52:22:000 D 305 11.00 GERAARDSBERGEN, BELGIQUE
1118 1441 MENGUELTI PAUL 10:53:08:000 E 443 11.00 SOULTZMATT, FRANCE
1119 1251 MOERMAN GEERT 10:53:39:000 E 444 11.00 DIKKELVENNE, FRANCE
1120 1220 DE METS LUC 10:53:50:000 E 445 11.00 LOKEREN, BELGIQUE
1121 1162 VAN DE CASTEELE HUGO 10:54:29:000 E 446 11.00 ASSENDE, BELGIQUE
1122 1309 SIX THOMAS 10:55:18:000 C 106 214.50 DINANT, Belgique
1123 1335 MOUREAU DANIEL 10:57:15:000 F 194 117.70 BRUXELLES, BELGIQUE
1124 1545 VERVERS ROBERT 10:57:24:000 E 447 11.00 LEIDEN, Pays-Bas
1125 1544 DIJKSTRA JOOP 10:57:25:000 E 448 11.00 ZOETERMEER, Pays-Bas
1126 1418 TOBE ANDRE 10:57:51:000 E 449 11.00 BOSKOOP, Pays-bas
1127 654 HOUBRECHTS CARLO GUSTAAF ELISABETH 10:58:00:000 E 450 11.00 VECHMAAL, BELGIQUE
1128 1422 DE VOS BOB 10:58:56:000 E 451 11.00 ROTTERDAM, Pays-Bas
1129 1423 KOK PAUL 10:58:56:000 E 452 11.00 ROTTERDAM, Pays-Bas
1130 1475 LICHT OLAF 10:59:07:000 D 306 11.00 VOORBURG, Pays-Bas
1131 1790 FORTIN JEAN YVES 10:59:45:000 E 453 11.00 OTTERSTHAL, FRANCE
1132 1504 D HOKER JORF 11:01:01:000 F 195 116.60 HEERLE, BELGIQUE
1133 1123 MUIJS BERT 11:01:18:000 D 307 11.00 HOOGLANDERVEEN, Pays-Bas
1134 1102 TELLING JOB 11:01:27:000 E 454 11.00 ZALTBOMMEL, Pays-bas
1135 905 SLUYS LOUIS 11:03:31:000 F 196 115.50 HAARLEM, Pays-Bas
1136 721 MULDER ALBY 11:04:45:000 E 455 11.00 NIJVERDAL, Pays-bas
1137 333 SCHROIFF THOMAS 11:05:08:000 D 308 11.00 HEUSENSTAMM, ALLEMAGNE
1138 634 HEKKELMAN ERWIN 11:05:49:000 D 309 11.00 ALMELO, Pays-Bas
1139 1549 BROZIUS VERONICA 11:06:03:000 AB 10 320.10 HAAKSBERGEN, Pays-Bas
1140 1111 BROUWER JOHN 11:06:18:000 E 456 11.00 MONTFFORT, Pays-Bas
1141 1113 VAN LEEUWEN MARTIEN 11:06:19:000 E 457 11.00 HARMELEN, Pays-Bas
1142 1653 BOKHOVE HENK 11:07:58:000 E 458 11.00 NIJVERDAL, Pays-bas
1143 1638 MULDERS FILIP 11:08:16:000 E 459 11.00 ZICHEM, BELGIQUE
1144 514 BIELARS BARRY 11:08:25:000 E 460 11.00 ROOSENDAAL, Pays-Bas
1145 446 VAN DEN MEERAKKER JOOST 11:08:33:000 D 310 11.00 UTRECHT, Pays-bas
1146 1184 KAAK JORIS 11:08:41:000 E 461 11.00 AMSTERDAM, Pays-Bas
1147 904 VAN KIMMENAEDE HENK 11:08:58:000 G1 39 288.20 HAARLEM, Pays-Bas
1148 1609 DOS SANTOS JOSE 11:09:18:000 E 462 11.00 MARCKOLSHEIM, FRANCE
1149 798 ALSEMGEEST RUUD 11:09:27:000 E 463 11.00 DAN HOOVE, Pays-Bas
1150 1135 BLAAUW FREDERIK 11:09:30:000 E 464 11.00 ZEIST, Pays-Bas
1151 789 VAN IMPE PHILIP 11:09:48:000 F 197 114.40 HAALTERT, BELGIQUE
1152 1153 VAN OMMEN EWOUT 11:10:43:000 C 107 213.40 UTRECHT, Pays-Bas
1153 1134 TRAP NICO 11:10:50:000 F 198 113.30 ZEIST, Pays-Bas
1154 774 DE SMET SVEN 11:10:52:000 D 311 11.00 ZEMST, BELGIQUE
1155 1608 LOLL GEORGES 11:11:17:000 G1 40 287.10 MARCKOLSHEIM, FRANCE
1156 539 BOONEN DANNY 11:12:40:000 E 465 11.00 KASTERLEE, BELGIQUE
1157 1173 VERGAUWE FRANK 11:12:50:000 F 199 112.20 ZELE, BELGIQUE
1158 624 VAN EETVELDE JO 11:13:17:000 E 466 11.00 ZELE, BELGIQUE
1160 475 VAN DER HEIJDEN MAX 11:13:51:000 F 200 111.10 ABCOUDE, Pays-Bas
1161 444 BOLZINGER MICHEL 11:16:21:000 E 467 11.00 KOENIGSMACKER, FRANCE
1162 516 ROELEVELD REMCO 11:16:39:000 E 468 11.00 DEN HAAG, Pays-Bas
1163 443 LEHWERT OLIVIER 11:17:15:000 D 312 11.00 MONTENACH, FRANCE
1164 821 LUDEKING KJELD 11:18:02:000 G1 41 286.00 SKANDERBORG, DANEMARK
1165 1721 VAND PETER 11:18:14:000 G1 42 284.90 RONDE, DANEMARK
1166 454 LEDERER PHILIP 11:18:16:000 D 313 11.00 FRANKFURT, ALLEMAGNE
1167 938 DONKERS CEES 11:18:37:000 F 201 110.00 ZEVENBERGEN, Pays-Bas
1168 674 MARYNS FRANK 11:18:38:000 F 202 108.90 ZOMERGEN, BELGIQUE
1169 54 RASKIN MADELEINE 11:19:09:000 B 5 325.60 SPRIMONT, BELGIQUE
1170 750 KULLER HERMEN 11:19:27:000 E 469 11.00 PURMEREND, Pays-Bas
1171 903 AMMERLAAN GERARD 11:19:36:000 G1 43 283.80 RIJSENHOUT, Pays-Bas
1172 583 DE LEEUW LUCIEN 11:19:41:000 F 203 107.80 OPHASSELT, BELGIQUE
1173 404 HAMANN FREDDI 11:19:43:000 J 11 319.00 TORRING, DANEMARK
1174 940 DE REUS CEES 11:19:53:000 E 470 11.00 ZEVENBERGEN, Pays-Bas
1175 1284 ALDERLIESTEN PETER 11:20:27:000 E 471 11.00 MOLENAARSGRAAF, Pays-Bas
1176 1511 JEHEE BART 11:20:41:000 F 204 106.70 DEN BOSCH, Pays-Bas
1177 844 ACCOE ROBERT 11:21:21:000 G1 44 282.70 MARIAKERKE, BELGIQUE
1178 406 HEDEGAARD HENRIK 11:21:33:000 E 472 11.00 VEJLE, BELGIQUE
1179 473 DE KROON MARIJKE 11:22:01:000 B 6 324.50 ABCOUDE, Pays-Bas
1180 256 KROON MARTIN 11:22:20:000 E 473 11.00 Almere, Pays-Bas
1181 814 BRESHAMER PATRICIA 11:23:50:000 E 474 11.00 UTRECHT, Pays-Bas
1182 538 MINTEN MICHAEL 11:23:55:000 E 475 11.00 BEERSE, BELGIQUE
1183 499 VAN DER BERG PETER 11:24:45:000 R 2 328.90 DE LIER, Pays-Bas
1184 1205 VAN VEEN TIM 11:25:19:000 C 108 212.30 ARNHEIN, Pays-Bas
1185 257 KROON ROBERT-JAN 11:25:54:000 D 314 11.00 Almere, Pays-Bas
1186 1125 KRIJTENBURG AART 11:26:48:000 D 315 11.00 AMERSFOORT, Pays-Bas
1187 952 VAN DE HOEF JOCHEM 11:27:25:000 F 205 105.60 APPELTERN, Pays-Bas
1188 401 GABRIELSEN SOREN 11:27:27:000 E 476 11.00 VESLE, DANEMARK
1189 1868 VERSTRATEN HANS 11:27:50:000 F 206 104.50 ZEELAND, Pays-Bas
1190 935 ROLLE KEES 11:28:22:000 E 477 11.00 ZEVENBERGEN, Pays-Bas
1191 639 VERDEYEN ANDY 11:29:46:000 D 316 11.00 SCHERPENHEUVEL, BELGIQUE
1192 1154 HOUBEN SANDER 11:30:35:000 C 109 211.20 UTRECHT, Pays-Bas
1193 1369 SNAUWAERT FILIP 11:31:26:000 E 478 11.00 KUURNE, BELGIQUE
1194 567 MANDEMAKER RONALD 11:31:50:000 D 317 11.00 HOOGVLIET, FRANCE
1195 554 KILLIAN MARCUS 11:31:52:000 D 318 11.00 , ALLEMAGNE
1196 1825 VAN DEN BROUGHT PIETER 11:32:28:000 R 3 327.80 , BELGIQUE
1197 591 BROUWERS OSCAR 11:34:10:000 E 479 11.00 ALMERE, Pays-Bas
1198 1857 DERVEAUX KATELYNE 11:34:31:000 D 319 11.00 GENTBRUGGE, BELGIQUE
1199 625 DE GRAEF HANS 11:35:16:000 E 480 11.00 ZELE, BELGIQUE
1200 1166 ALLEWIJN ALBERT 11:35:16:000 F 207 103.40 KLOETINGE, Pays-Bas
1201 1168 STEENDUK MARTIN 11:37:23:000 F 208 102.30 GOES, Pays-Bas
1202 702 JRGENSEN ERLING 11:40:06:000 F 209 101.20 VEJLE, DANEMARK
1203 793 GIELES FONS 11:40:28:000 D 320 11.00 HOOGSTRATEN, BELGIQUE
1204 1133 VAN DE WEERDHOF FRANK 11:42:08:000 E 481 11.00 ZEIST, Pays-Bas
1205 1722 VAND INGE 11:43:40:000 B 7 323.40 ROENDE, DANEMARK
1206 1786 STUCKY JOEL 11:44:14:000 F 210 100.10 JONVELLE, FRANCE
1207 498 STEENBERGEN PIETER 11:45:54:000 F 211 99.00 HEERDE, Pays-Bas
1208 1368 BONNETON SEBASTIEN 11:46:41:000 D 321 11.00 Moncley, France
1209 500 BRUNING FRANS LOUIS JOZEF 11:47:13:000 E 482 11.00 BRUMMEN, Pays-Bas
1210 1260 WILHELM PIERRE 11:48:15:000 G1 45 281.60 PLOBSHEIM, FRANCE
1211 1126 Schouten Johan 11:50:22:000 F 212 97.90 Nootdorp, Pays-Bas
1212 712 PETERSEN BJARNE 11:52:37:000 F 213 96.80 RDEKRO, DANEMARK
1213 1199 RIOU DIDIER 11:55:27:000 F 214 95.70 CARQUEFOU, FRANCE
1214 1824 ROWIES DAAM 11:57:59:000 C 110 210.10 AALST, BELGIQUE
1215 1187 FABRE MICHEL 11:58:23:000 F 215 94.60 LE CELLIER, FRANCE
1216 820 SCHAAFSMA RENE 11:59:24:000 E 483 11.00 ASSEN, Pays-Bas
1217 704 SKOVBJERG SVEND 12:03:53:000 R 4 326.70 VEJLE, DANEMARK
1218 1336 ZYLBERBERG LUC 12:07:20:000 F 216 93.50 MOLENBEEK, BELGIQUE
1219 1789 VERLINDEN MAARTEN 12:10:57:000 F 217 92.40 NIJMEGEN, Pays-Bas
1220 20 FERCHAUD LIONEL 12:11:06:000 C 111 209.00 Fleurville, France
1221 1255 BLOMMAERTS JO 12:12:17:000 D 322 11.00 ERPE-MERE, BELGIQUE
1222 1518 HAGEN HEIN JAN 12:18:36:000 E 484 11.00 UTRECHT, Pays-Bas
1223 703 PEDERSEN OLE 12:24:06:000 G1 46 280.50 VEJLE, DANEMARK
1224 714 PEDERSEN ANDREAS CHRISTIAN 12:29:07:000 E 485 11.00 VEJLE, DANEMARK
1225 1870 MOERMAN ALEX 12:44:24:000 F 218 91.30 MALDEGEM, BELGIQUE
1226 673 VANDAMME FILIP 12:44:38:000 D 323 11.00 KUURNE, BELGIQUE
1227 1417 TURPYN JURGEN 12:44:59:000 E 486 11.00 KUURNE, BELGIQUE
1228 533 SELS LEOPOLD 12:45:27:000 G1 47 279.40 VOSSELAAR, BELGIQUE
1229 380 MUTHER JACQUES 12:46:43:000 G2 4 326.70 GOUVERNES, FRANCE
1230 1338 HANOT JEAN PAUL 12:47:35:000 E 487 11.00 IXELLES, BELGIQUE
1231 1512 KNIPPELS BERT 12:55:35:000 E 488 11.00 ZEIST, Pays-bas
TOP